<?xml version="1.0" encoding="UTF-8" standalone="no" ?>
<gpx xmlns="http://www.topografix.com/GPX/1/1" xmlns:gpxx="http://www.garmin.com/xmlschemas/GpxExtensions/v3"  xmlns:gpxtpx="http://www.garmin.com/xmlschemas/TrackPointExtension/v1" creator="G7ToWin A.00.201 - Sep 26 2009 11:32" version="1.1" xmlns:xsi="http://www.w3.org/2001/XMLSchema-instance" xsi:schemaLocation="http://www.topografix.com/GPX/1/1 http://www.topografix.com/GPX/1/1/gpx.xsd http://www.garmin.com/xmlschemas/GpxExtensions/v3 http://www.garmin.com/xmlschemas/GpxExtensionsv3.xsd http://www.garmin.com/xmlschemas/TrackPointExtension/v1 http://www.garmin.com/xmlschemas/TrackPointExtensionv1.xsd">
  <metadata>
    <link href="http://www.gpsinformation.org/ronh/g7towin.htm">
      <text>G7ToWin</text>
    </link>
    <time>2011-05-31T14:33:22Z</time>
    <bounds minlat="44.30047988891602" minlon="5.12610912322998" maxlat="44.31612253189087" maxlon="5.17353057861328"/>
  </metadata>

  <trk>
    <name>ACTIVE LOG</name>
    <type>Track black</type>
    <extensions>
      <line xmlns="http://www.topografix.com/GPX/gpx_style/0/2">
        <color>000000</color>
      </line>
      <gpxx:TrackExtension>
        <gpxx:DisplayColor>Black</gpxx:DisplayColor>
      </gpxx:TrackExtension>
    </extensions>
    <trkseg>
      <trkpt lat="44.30138111114502" lon="5.12634515762329">
        <ele>350.537842</ele>
        <time>2011-06-02T09:37:05Z</time>
      </trkpt>
      <trkpt lat="44.30138111114502" lon="5.12634515762329">
        <ele>349.095825</ele>
        <time>2011-06-02T09:37:07Z</time>
      </trkpt>
      <trkpt lat="44.30133819580078" lon="5.12638807296753">
        <ele>346.692627</ele>
        <time>2011-06-02T09:37:11Z</time>
      </trkpt>
      <trkpt lat="44.30133819580078" lon="5.12643098831177">
        <ele>345.731323</ele>
        <time>2011-06-02T09:37:15Z</time>
      </trkpt>
      <trkpt lat="44.30135965347290" lon="5.12653827667236">
        <ele>346.212036</ele>
        <time>2011-06-02T09:37:23Z</time>
      </trkpt>
      <trkpt lat="44.30138111114502" lon="5.12658119201660">
        <ele>346.212036</ele>
        <time>2011-06-02T09:37:26Z</time>
      </trkpt>
      <trkpt lat="44.30140256881714" lon="5.12668848037720">
        <ele>346.692627</ele>
        <time>2011-06-02T09:37:35Z</time>
      </trkpt>
      <trkpt lat="44.30138111114502" lon="5.12675285339355">
        <ele>346.692627</ele>
        <time>2011-06-02T09:37:40Z</time>
      </trkpt>
      <trkpt lat="44.30127382278442" lon="5.12679576873779">
        <ele>347.653931</ele>
        <time>2011-06-02T09:37:54Z</time>
      </trkpt>
      <trkpt lat="44.30116653442383" lon="5.12686014175415">
        <ele>347.653931</ele>
        <time>2011-06-02T09:38:08Z</time>
      </trkpt>
      <trkpt lat="44.30120944976807" lon="5.12705326080322">
        <ele>350.537842</ele>
        <time>2011-06-02T09:39:06Z</time>
      </trkpt>
      <trkpt lat="44.30120944976807" lon="5.12705326080322">
        <ele>350.537842</ele>
        <time>2011-06-02T09:39:18Z</time>
      </trkpt>
      <trkpt lat="44.30118799209595" lon="5.12713909149170">
        <ele>348.134644</ele>
        <time>2011-06-02T09:39:31Z</time>
      </trkpt>
      <trkpt lat="44.30112361907959" lon="5.12713909149170">
        <ele>349.095825</ele>
        <time>2011-06-02T09:39:59Z</time>
      </trkpt>
      <trkpt lat="44.30110216140747" lon="5.12716054916382">
        <ele>350.537842</ele>
        <time>2011-06-02T09:40:13Z</time>
      </trkpt>
      <trkpt lat="44.30108070373535" lon="5.12722492218018">
        <ele>351.979858</ele>
        <time>2011-06-02T09:40:19Z</time>
      </trkpt>
      <trkpt lat="44.30103778839111" lon="5.12739658355713">
        <ele>351.499146</ele>
        <time>2011-06-02T09:40:32Z</time>
      </trkpt>
      <trkpt lat="44.30099487304688" lon="5.12752532958984">
        <ele>351.979858</ele>
        <time>2011-06-02T09:40:45Z</time>
      </trkpt>
      <trkpt lat="44.30095195770264" lon="5.12763261795044">
        <ele>353.421875</ele>
        <time>2011-06-02T09:40:58Z</time>
      </trkpt>
      <trkpt lat="44.30093050003052" lon="5.12776136398315">
        <ele>354.863770</ele>
        <time>2011-06-02T09:41:09Z</time>
      </trkpt>
      <trkpt lat="44.30086612701416" lon="5.12782573699951">
        <ele>356.305786</ele>
        <time>2011-06-02T09:41:16Z</time>
      </trkpt>
      <trkpt lat="44.30086612701416" lon="5.12791156768799">
        <ele>355.344482</ele>
        <time>2011-06-02T09:41:25Z</time>
      </trkpt>
      <trkpt lat="44.30084466934204" lon="5.12797594070435">
        <ele>353.902588</ele>
        <time>2011-06-02T09:42:48Z</time>
      </trkpt>
      <trkpt lat="44.30080175399780" lon="5.12810468673706">
        <ele>358.228394</ele>
        <time>2011-06-02T09:42:58Z</time>
      </trkpt>
      <trkpt lat="44.30075883865356" lon="5.12816905975342">
        <ele>359.670410</ele>
        <time>2011-06-02T09:43:03Z</time>
      </trkpt>
      <trkpt lat="44.30069446563721" lon="5.12823343276978">
        <ele>362.073730</ele>
        <time>2011-06-02T09:43:10Z</time>
      </trkpt>
      <trkpt lat="44.30060863494873" lon="5.12829780578613">
        <ele>363.515747</ele>
        <time>2011-06-02T09:43:19Z</time>
      </trkpt>
      <trkpt lat="44.30052280426025" lon="5.12838363647461">
        <ele>362.554321</ele>
        <time>2011-06-02T09:43:29Z</time>
      </trkpt>
      <trkpt lat="44.30047988891602" lon="5.12851238250732">
        <ele>363.996338</ele>
        <time>2011-06-02T09:43:41Z</time>
      </trkpt>
      <trkpt lat="44.30047988891602" lon="5.12849092483521">
        <ele>364.957642</ele>
        <time>2011-06-02T09:43:51Z</time>
      </trkpt>
      <trkpt lat="44.30047988891602" lon="5.12846946716309">
        <ele>364.957642</ele>
        <time>2011-06-02T09:43:54Z</time>
      </trkpt>
      <trkpt lat="44.30056571960449" lon="5.12838363647461">
        <ele>363.515747</ele>
        <time>2011-06-02T09:44:02Z</time>
      </trkpt>
      <trkpt lat="44.30069446563721" lon="5.12836217880249">
        <ele>364.957642</ele>
        <time>2011-06-02T09:44:16Z</time>
      </trkpt>
      <trkpt lat="44.30080175399780" lon="5.12834072113037">
        <ele>367.360962</ele>
        <time>2011-06-02T09:44:27Z</time>
      </trkpt>
      <trkpt lat="44.30090904235840" lon="5.12831926345825">
        <ele>366.880249</ele>
        <time>2011-06-02T09:44:37Z</time>
      </trkpt>
      <trkpt lat="44.30099487304688" lon="5.12829780578613">
        <ele>365.918945</ele>
        <time>2011-06-02T09:44:46Z</time>
      </trkpt>
      <trkpt lat="44.30110216140747" lon="5.12825489044189">
        <ele>366.399536</ele>
        <time>2011-06-02T09:44:58Z</time>
      </trkpt>
      <trkpt lat="44.30116653442383" lon="5.12821197509766">
        <ele>366.399536</ele>
        <time>2011-06-02T09:45:06Z</time>
      </trkpt>
      <trkpt lat="44.30125236511231" lon="5.12819051742554">
        <ele>367.360962</ele>
        <time>2011-06-02T09:45:15Z</time>
      </trkpt>
      <trkpt lat="44.30133819580078" lon="5.12816905975342">
        <ele>368.802979</ele>
        <time>2011-06-02T09:45:22Z</time>
      </trkpt>
      <trkpt lat="44.30144548416138" lon="5.12814760208130">
        <ele>370.725586</ele>
        <time>2011-06-02T09:45:33Z</time>
      </trkpt>
      <trkpt lat="44.30148839950562" lon="5.12816905975342">
        <ele>371.686890</ele>
        <time>2011-06-02T09:45:40Z</time>
      </trkpt>
      <trkpt lat="44.30150985717773" lon="5.12821197509766">
        <ele>371.686890</ele>
        <time>2011-06-02T09:45:43Z</time>
      </trkpt>
      <trkpt lat="44.30150985717773" lon="5.12823343276978">
        <ele>371.206299</ele>
        <time>2011-06-02T09:45:46Z</time>
      </trkpt>
      <trkpt lat="44.30146694183350" lon="5.12834072113037">
        <ele>370.725586</ele>
        <time>2011-06-02T09:45:54Z</time>
      </trkpt>
      <trkpt lat="44.30142402648926" lon="5.12853384017944">
        <ele>369.764282</ele>
        <time>2011-06-02T09:46:07Z</time>
      </trkpt>
      <trkpt lat="44.30140256881714" lon="5.12866258621216">
        <ele>370.725586</ele>
        <time>2011-06-02T09:46:16Z</time>
      </trkpt>
      <trkpt lat="44.30138111114502" lon="5.12870550155640">
        <ele>371.686890</ele>
        <time>2011-06-02T09:46:19Z</time>
      </trkpt>
      <trkpt lat="44.30138111114502" lon="5.12883424758911">
        <ele>373.128906</ele>
        <time>2011-06-02T09:46:28Z</time>
      </trkpt>
      <trkpt lat="44.30135965347290" lon="5.12892007827759">
        <ele>373.609497</ele>
        <time>2011-06-02T09:46:33Z</time>
      </trkpt>
      <trkpt lat="44.30135965347290" lon="5.12898445129395">
        <ele>374.570801</ele>
        <time>2011-06-02T09:46:37Z</time>
      </trkpt>
      <trkpt lat="44.30133819580078" lon="5.12919902801514">
        <ele>376.493530</ele>
        <time>2011-06-02T09:46:50Z</time>
      </trkpt>
      <trkpt lat="44.30131673812866" lon="5.12928485870361">
        <ele>377.454834</ele>
        <time>2011-06-02T09:46:54Z</time>
      </trkpt>
      <trkpt lat="44.30131673812866" lon="5.12947797775269">
        <ele>379.377441</ele>
        <time>2011-06-02T09:47:06Z</time>
      </trkpt>
      <trkpt lat="44.30131673812866" lon="5.12960672378540">
        <ele>379.858032</ele>
        <time>2011-06-02T09:47:13Z</time>
      </trkpt>
      <trkpt lat="44.30133819580078" lon="5.12979984283447">
        <ele>380.819458</ele>
        <time>2011-06-02T09:47:26Z</time>
      </trkpt>
      <trkpt lat="44.30142402648926" lon="5.12992858886719">
        <ele>380.338745</ele>
        <time>2011-06-02T09:47:36Z</time>
      </trkpt>
      <trkpt lat="44.30150985717773" lon="5.13003587722778">
        <ele>377.935425</ele>
        <time>2011-06-02T09:47:46Z</time>
      </trkpt>
      <trkpt lat="44.30153131484985" lon="5.13007879257202">
        <ele>376.974243</ele>
        <time>2011-06-02T09:47:50Z</time>
      </trkpt>
      <trkpt lat="44.30163860321045" lon="5.13022899627686">
        <ele>374.090088</ele>
        <time>2011-06-02T09:48:02Z</time>
      </trkpt>
      <trkpt lat="44.30170297622681" lon="5.13033628463745">
        <ele>371.206299</ele>
        <time>2011-06-02T09:48:12Z</time>
      </trkpt>
      <trkpt lat="44.30176734924316" lon="5.13044357299805">
        <ele>369.764282</ele>
        <time>2011-06-02T09:48:26Z</time>
      </trkpt>
      <trkpt lat="44.30187463760376" lon="5.13057231903076">
        <ele>369.283691</ele>
        <time>2011-06-02T09:48:38Z</time>
      </trkpt>
      <trkpt lat="44.30191755294800" lon="5.13065814971924">
        <ele>368.802979</ele>
        <time>2011-06-02T09:48:46Z</time>
      </trkpt>
      <trkpt lat="44.30198192596436" lon="5.13076543807983">
        <ele>369.283691</ele>
        <time>2011-06-02T09:48:56Z</time>
      </trkpt>
      <trkpt lat="44.30208921432495" lon="5.13089418411255">
        <ele>373.128906</ele>
        <time>2011-06-02T09:49:07Z</time>
      </trkpt>
      <trkpt lat="44.30211067199707" lon="5.13091564178467">
        <ele>375.051514</ele>
        <time>2011-06-02T09:49:10Z</time>
      </trkpt>
      <trkpt lat="44.30219650268555" lon="5.13108730316162">
        <ele>386.106689</ele>
        <time>2011-06-02T09:49:26Z</time>
      </trkpt>
      <trkpt lat="44.30223941802979" lon="5.13117313385010">
        <ele>391.874512</ele>
        <time>2011-06-02T09:49:33Z</time>
      </trkpt>
      <trkpt lat="44.30226087570190" lon="5.13119459152222">
        <ele>391.874512</ele>
        <time>2011-06-02T09:49:37Z</time>
      </trkpt>
      <trkpt lat="44.30232524871826" lon="5.13138771057129">
        <ele>391.874512</ele>
        <time>2011-06-02T09:49:51Z</time>
      </trkpt>
      <trkpt lat="44.30238962173462" lon="5.13158082962036">
        <ele>389.471191</ele>
        <time>2011-06-02T09:50:04Z</time>
      </trkpt>
      <trkpt lat="44.30247545242310" lon="5.13177394866943">
        <ele>387.067993</ele>
        <time>2011-06-02T09:50:19Z</time>
      </trkpt>
      <trkpt lat="44.30253982543945" lon="5.13190269470215">
        <ele>386.106689</ele>
        <time>2011-06-02T09:50:30Z</time>
      </trkpt>
      <trkpt lat="44.30260419845581" lon="5.13198852539063">
        <ele>385.145386</ele>
        <time>2011-06-02T09:50:40Z</time>
      </trkpt>
      <trkpt lat="44.30262565612793" lon="5.13203144073486">
        <ele>384.664795</ele>
        <time>2011-06-02T09:50:42Z</time>
      </trkpt>
      <trkpt lat="44.30275440216065" lon="5.13218164443970">
        <ele>384.184082</ele>
        <time>2011-06-02T09:50:55Z</time>
      </trkpt>
      <trkpt lat="44.30284023284912" lon="5.13231039047241">
        <ele>384.664795</ele>
        <time>2011-06-02T09:51:07Z</time>
      </trkpt>
      <trkpt lat="44.30292606353760" lon="5.13241767883301">
        <ele>384.664795</ele>
        <time>2011-06-02T09:51:17Z</time>
      </trkpt>
      <trkpt lat="44.30307626724243" lon="5.13263225555420">
        <ele>385.145386</ele>
        <time>2011-06-02T09:51:36Z</time>
      </trkpt>
      <trkpt lat="44.30314064025879" lon="5.13271808624268">
        <ele>385.145386</ele>
        <time>2011-06-02T09:51:52Z</time>
      </trkpt>
      <trkpt lat="44.30318355560303" lon="5.13278245925903">
        <ele>385.145386</ele>
        <time>2011-06-02T09:52:06Z</time>
      </trkpt>
      <trkpt lat="44.30322647094727" lon="5.13284683227539">
        <ele>385.145386</ele>
        <time>2011-06-02T09:52:10Z</time>
      </trkpt>
      <trkpt lat="44.30333375930786" lon="5.13297557830811">
        <ele>385.625977</ele>
        <time>2011-06-02T09:52:24Z</time>
      </trkpt>
      <trkpt lat="44.30339813232422" lon="5.13306140899658">
        <ele>386.106689</ele>
        <time>2011-06-02T09:52:34Z</time>
      </trkpt>
      <trkpt lat="44.30344104766846" lon="5.13310432434082">
        <ele>385.625977</ele>
        <time>2011-06-02T09:52:50Z</time>
      </trkpt>
      <trkpt lat="44.30346250534058" lon="5.13316869735718">
        <ele>385.145386</ele>
        <time>2011-06-02T09:52:56Z</time>
      </trkpt>
      <trkpt lat="44.30352687835693" lon="5.13323307037354">
        <ele>385.145386</ele>
        <time>2011-06-02T09:53:02Z</time>
      </trkpt>
      <trkpt lat="44.30359125137329" lon="5.13329744338989">
        <ele>385.145386</ele>
        <time>2011-06-02T09:53:09Z</time>
      </trkpt>
      <trkpt lat="44.30361270904541" lon="5.13336181640625">
        <ele>385.145386</ele>
        <time>2011-06-02T09:53:23Z</time>
      </trkpt>
      <trkpt lat="44.30367708206177" lon="5.13342618942261">
        <ele>385.625977</ele>
        <time>2011-06-02T09:53:30Z</time>
      </trkpt>
      <trkpt lat="44.30369853973389" lon="5.13344764709473">
        <ele>385.625977</ele>
        <time>2011-06-02T09:53:34Z</time>
      </trkpt>
      <trkpt lat="44.30374145507813" lon="5.13351202011108">
        <ele>386.106689</ele>
        <time>2011-06-02T09:53:39Z</time>
      </trkpt>
      <trkpt lat="44.30376291275024" lon="5.13355493545532">
        <ele>385.625977</ele>
        <time>2011-06-02T09:53:44Z</time>
      </trkpt>
      <trkpt lat="44.30387020111084" lon="5.13368368148804">
        <ele>385.145386</ele>
        <time>2011-06-02T09:53:54Z</time>
      </trkpt>
      <trkpt lat="44.30397748947144" lon="5.13381242752075">
        <ele>386.587402</ele>
        <time>2011-06-02T09:54:05Z</time>
      </trkpt>
      <trkpt lat="44.30399894714356" lon="5.13383388519287">
        <ele>387.067993</ele>
        <time>2011-06-02T09:54:07Z</time>
      </trkpt>
      <trkpt lat="44.30414915084839" lon="5.13402700424194">
        <ele>388.510010</ele>
        <time>2011-06-02T09:54:23Z</time>
      </trkpt>
      <trkpt lat="44.30429935455322" lon="5.13424158096313">
        <ele>389.471191</ele>
        <time>2011-06-02T09:54:41Z</time>
      </trkpt>
      <trkpt lat="44.30447101593018" lon="5.13445615768433">
        <ele>389.951904</ele>
        <time>2011-06-02T09:54:59Z</time>
      </trkpt>
      <trkpt lat="44.30457830429077" lon="5.13460636138916">
        <ele>390.432617</ele>
        <time>2011-06-02T09:55:15Z</time>
      </trkpt>
      <trkpt lat="44.30470705032349" lon="5.13477802276611">
        <ele>390.432617</ele>
        <time>2011-06-02T09:55:29Z</time>
      </trkpt>
      <trkpt lat="44.30485725402832" lon="5.13497114181519">
        <ele>391.874512</ele>
        <time>2011-06-02T09:55:45Z</time>
      </trkpt>
      <trkpt lat="44.30500745773315" lon="5.13518571853638">
        <ele>392.355347</ele>
        <time>2011-06-02T09:56:02Z</time>
      </trkpt>
      <trkpt lat="44.30509328842163" lon="5.13537883758545">
        <ele>393.797241</ele>
        <time>2011-06-02T09:56:15Z</time>
      </trkpt>
      <trkpt lat="44.30513620376587" lon="5.13563632965088">
        <ele>393.316528</ele>
        <time>2011-06-02T09:56:30Z</time>
      </trkpt>
      <trkpt lat="44.30507183074951" lon="5.13591527938843">
        <ele>394.277954</ele>
        <time>2011-06-02T09:56:47Z</time>
      </trkpt>
      <trkpt lat="44.30507183074951" lon="5.13617277145386">
        <ele>395.239136</ele>
        <time>2011-06-02T09:57:04Z</time>
      </trkpt>
      <trkpt lat="44.30511474609375" lon="5.13625860214233">
        <ele>395.239136</ele>
        <time>2011-06-02T09:57:10Z</time>
      </trkpt>
      <trkpt lat="44.30522203445435" lon="5.13643026351929">
        <ele>396.681152</ele>
        <time>2011-06-02T09:57:25Z</time>
      </trkpt>
      <trkpt lat="44.30530786514282" lon="5.13660192489624">
        <ele>396.200562</ele>
        <time>2011-06-02T09:57:44Z</time>
      </trkpt>
      <trkpt lat="44.30535078048706" lon="5.13670921325684">
        <ele>395.239136</ele>
        <time>2011-06-02T09:57:54Z</time>
      </trkpt>
      <trkpt lat="44.30541515350342" lon="5.13679504394531">
        <ele>395.239136</ele>
        <time>2011-06-02T09:58:03Z</time>
      </trkpt>
      <trkpt lat="44.30552244186401" lon="5.13698816299438">
        <ele>393.797241</ele>
        <time>2011-06-02T09:58:17Z</time>
      </trkpt>
      <trkpt lat="44.30565118789673" lon="5.13715982437134">
        <ele>390.913208</ele>
        <time>2011-06-02T09:58:32Z</time>
      </trkpt>
      <trkpt lat="44.30575847625732" lon="5.13722419738770">
        <ele>390.432617</ele>
        <time>2011-06-02T09:58:43Z</time>
      </trkpt>
      <trkpt lat="44.30588722229004" lon="5.13737440109253">
        <ele>388.990601</ele>
        <time>2011-06-02T09:58:56Z</time>
      </trkpt>
      <trkpt lat="44.30590867996216" lon="5.13739585876465">
        <ele>388.510010</ele>
        <time>2011-06-02T09:58:58Z</time>
      </trkpt>
      <trkpt lat="44.30605888366699" lon="5.13752460479736">
        <ele>386.587402</ele>
        <time>2011-06-02T09:59:10Z</time>
      </trkpt>
      <trkpt lat="44.30612325668335" lon="5.13767480850220">
        <ele>388.990601</ele>
        <time>2011-06-02T09:59:22Z</time>
      </trkpt>
      <trkpt lat="44.30625200271606" lon="5.13780355453491">
        <ele>391.874512</ele>
        <time>2011-06-02T09:59:34Z</time>
      </trkpt>
      <trkpt lat="44.30635929107666" lon="5.13793230056763">
        <ele>391.393799</ele>
        <time>2011-06-02T09:59:48Z</time>
      </trkpt>
      <trkpt lat="44.30638074874878" lon="5.13797521591187">
        <ele>390.913208</ele>
        <time>2011-06-02T09:59:52Z</time>
      </trkpt>
      <trkpt lat="44.30644512176514" lon="5.13816833496094">
        <ele>390.432617</ele>
        <time>2011-06-02T10:00:05Z</time>
      </trkpt>
      <trkpt lat="44.30646657943726" lon="5.13833999633789">
        <ele>391.393799</ele>
        <time>2011-06-02T10:00:15Z</time>
      </trkpt>
      <trkpt lat="44.30646657943726" lon="5.13849020004272">
        <ele>396.681152</ele>
        <time>2011-06-02T10:00:26Z</time>
      </trkpt>
      <trkpt lat="44.30646657943726" lon="5.13857603073120">
        <ele>398.123169</ele>
        <time>2011-06-02T10:00:32Z</time>
      </trkpt>
      <trkpt lat="44.30646657943726" lon="5.13885498046875">
        <ele>403.891113</ele>
        <time>2011-06-02T10:00:50Z</time>
      </trkpt>
      <trkpt lat="44.30646657943726" lon="5.13894081115723">
        <ele>405.333008</ele>
        <time>2011-06-02T10:01:02Z</time>
      </trkpt>
      <trkpt lat="44.30648803710938" lon="5.13909101486206">
        <ele>405.333008</ele>
        <time>2011-06-02T10:01:14Z</time>
      </trkpt>
      <trkpt lat="44.30650949478149" lon="5.13915538787842">
        <ele>405.333008</ele>
        <time>2011-06-02T10:01:22Z</time>
      </trkpt>
      <trkpt lat="44.30650949478149" lon="5.13917684555054">
        <ele>404.852295</ele>
        <time>2011-06-02T10:01:24Z</time>
      </trkpt>
      <trkpt lat="44.30663824081421" lon="5.13934850692749">
        <ele>406.774902</ele>
        <time>2011-06-02T10:01:37Z</time>
      </trkpt>
      <trkpt lat="44.30678844451904" lon="5.13947725296021">
        <ele>411.100952</ele>
        <time>2011-06-02T10:01:52Z</time>
      </trkpt>
      <trkpt lat="44.30683135986328" lon="5.13956308364868">
        <ele>412.542847</ele>
        <time>2011-06-02T10:02:05Z</time>
      </trkpt>
      <trkpt lat="44.30683135986328" lon="5.13960599899292">
        <ele>413.504272</ele>
        <time>2011-06-02T10:02:10Z</time>
      </trkpt>
      <trkpt lat="44.30678844451904" lon="5.13975620269775">
        <ele>415.426880</ele>
        <time>2011-06-02T10:02:23Z</time>
      </trkpt>
      <trkpt lat="44.30676698684692" lon="5.13986349105835">
        <ele>417.830200</ele>
        <time>2011-06-02T10:02:36Z</time>
      </trkpt>
      <trkpt lat="44.30676698684692" lon="5.13984203338623">
        <ele>417.830200</ele>
        <time>2011-06-02T10:02:38Z</time>
      </trkpt>
      <trkpt lat="44.30683135986328" lon="5.13960599899292">
        <ele>414.946167</ele>
        <time>2011-06-02T10:02:55Z</time>
      </trkpt>
      <trkpt lat="44.30683135986328" lon="5.13949871063232">
        <ele>414.465454</ele>
        <time>2011-06-02T10:03:02Z</time>
      </trkpt>
      <trkpt lat="44.30685281753540" lon="5.13947725296021">
        <ele>415.426880</ele>
        <time>2011-06-02T10:03:04Z</time>
      </trkpt>
      <trkpt lat="44.30700302124023" lon="5.13949871063232">
        <ele>417.830200</ele>
        <time>2011-06-02T10:03:18Z</time>
      </trkpt>
      <trkpt lat="44.30702447891235" lon="5.13949871063232">
        <ele>419.272217</ele>
        <time>2011-06-02T10:03:22Z</time>
      </trkpt>
      <trkpt lat="44.30708885192871" lon="5.13952016830444">
        <ele>420.714111</ele>
        <time>2011-06-02T10:03:27Z</time>
      </trkpt>
      <trkpt lat="44.30719614028931" lon="5.13956308364868">
        <ele>420.233398</ele>
        <time>2011-06-02T10:03:40Z</time>
      </trkpt>
      <trkpt lat="44.30723905563355" lon="5.13960599899292">
        <ele>420.714111</ele>
        <time>2011-06-02T10:03:46Z</time>
      </trkpt>
      <trkpt lat="44.30730342864990" lon="5.13971328735352">
        <ele>420.714111</ele>
        <time>2011-06-02T10:03:57Z</time>
      </trkpt>
      <trkpt lat="44.30736780166626" lon="5.13979911804199">
        <ele>420.714111</ele>
        <time>2011-06-02T10:04:09Z</time>
      </trkpt>
      <trkpt lat="44.30743217468262" lon="5.13997077941895">
        <ele>419.752808</ele>
        <time>2011-06-02T10:04:23Z</time>
      </trkpt>
      <trkpt lat="44.30749654769898" lon="5.14007806777954">
        <ele>419.752808</ele>
        <time>2011-06-02T10:04:33Z</time>
      </trkpt>
      <trkpt lat="44.30753946304321" lon="5.14014244079590">
        <ele>419.752808</ele>
        <time>2011-06-02T10:04:42Z</time>
      </trkpt>
      <trkpt lat="44.30760383605957" lon="5.14024972915649">
        <ele>420.714111</ele>
        <time>2011-06-02T10:04:53Z</time>
      </trkpt>
      <trkpt lat="44.30773258209229" lon="5.14035701751709">
        <ele>420.233398</ele>
        <time>2011-06-02T10:05:10Z</time>
      </trkpt>
      <trkpt lat="44.30781841278076" lon="5.14046430587769">
        <ele>417.830200</ele>
        <time>2011-06-02T10:05:26Z</time>
      </trkpt>
      <trkpt lat="44.30792570114136" lon="5.14055013656616">
        <ele>418.310791</ele>
        <time>2011-06-02T10:05:36Z</time>
      </trkpt>
      <trkpt lat="44.30799007415772" lon="5.14078617095947">
        <ele>426.482056</ele>
        <time>2011-06-02T10:05:52Z</time>
      </trkpt>
      <trkpt lat="44.30803298950195" lon="5.14091491699219">
        <ele>430.807983</ele>
        <time>2011-06-02T10:06:04Z</time>
      </trkpt>
      <trkpt lat="44.30805444717407" lon="5.14097929000854">
        <ele>431.769165</ele>
        <time>2011-06-02T10:06:12Z</time>
      </trkpt>
      <trkpt lat="44.30809736251831" lon="5.14106512069702">
        <ele>432.730713</ele>
        <time>2011-06-02T10:06:20Z</time>
      </trkpt>
      <trkpt lat="44.30814027786255" lon="5.14115095138550">
        <ele>434.172607</ele>
        <time>2011-06-02T10:06:30Z</time>
      </trkpt>
      <trkpt lat="44.30822610855103" lon="5.14130115509033">
        <ele>435.614502</ele>
        <time>2011-06-02T10:06:47Z</time>
      </trkpt>
      <trkpt lat="44.30833339691162" lon="5.14136552810669">
        <ele>435.614502</ele>
        <time>2011-06-02T10:06:56Z</time>
      </trkpt>
      <trkpt lat="44.30839776992798" lon="5.14142990112305">
        <ele>435.133911</ele>
        <time>2011-06-02T10:07:05Z</time>
      </trkpt>
      <trkpt lat="44.30841922760010" lon="5.14142990112305">
        <ele>435.133911</ele>
        <time>2011-06-02T10:07:06Z</time>
      </trkpt>
      <trkpt lat="44.30854797363281" lon="5.14153718948364">
        <ele>434.172607</ele>
        <time>2011-06-02T10:07:25Z</time>
      </trkpt>
      <trkpt lat="44.30865526199341" lon="5.14164447784424">
        <ele>433.211304</ele>
        <time>2011-06-02T10:07:40Z</time>
      </trkpt>
      <trkpt lat="44.30878400802612" lon="5.14175176620483">
        <ele>430.807983</ele>
        <time>2011-06-02T10:08:05Z</time>
      </trkpt>
      <trkpt lat="44.30886983871460" lon="5.14183759689331">
        <ele>430.807983</ele>
        <time>2011-06-02T10:08:15Z</time>
      </trkpt>
      <trkpt lat="44.30891275405884" lon="5.14203071594238">
        <ele>430.807983</ele>
        <time>2011-06-02T10:08:30Z</time>
      </trkpt>
      <trkpt lat="44.30893421173096" lon="5.14215946197510">
        <ele>433.211304</ele>
        <time>2011-06-02T10:08:40Z</time>
      </trkpt>
      <trkpt lat="44.30902004241943" lon="5.14222383499146">
        <ele>433.211304</ele>
        <time>2011-06-02T10:08:54Z</time>
      </trkpt>
      <trkpt lat="44.30910587310791" lon="5.14235258102417">
        <ele>436.095215</ele>
        <time>2011-06-02T10:09:08Z</time>
      </trkpt>
      <trkpt lat="44.30912733078003" lon="5.14237403869629">
        <ele>437.537109</ele>
        <time>2011-06-02T10:09:10Z</time>
      </trkpt>
      <trkpt lat="44.30917024612427" lon="5.14243841171265">
        <ele>445.708374</ele>
        <time>2011-06-02T10:09:16Z</time>
      </trkpt>
      <trkpt lat="44.30921316146851" lon="5.14256715774536">
        <ele>451.476318</ele>
        <time>2011-06-02T10:09:28Z</time>
      </trkpt>
      <trkpt lat="44.30925607681274" lon="5.14269590377808">
        <ele>457.244263</ele>
        <time>2011-06-02T10:09:42Z</time>
      </trkpt>
      <trkpt lat="44.30927753448486" lon="5.14276027679443">
        <ele>458.205566</ele>
        <time>2011-06-02T10:09:52Z</time>
      </trkpt>
      <trkpt lat="44.30932044982910" lon="5.14288902282715">
        <ele>461.089478</ele>
        <time>2011-06-02T10:10:03Z</time>
      </trkpt>
      <trkpt lat="44.30940628051758" lon="5.14297485351563">
        <ele>462.050781</ele>
        <time>2011-06-02T10:10:17Z</time>
      </trkpt>
      <trkpt lat="44.30947065353394" lon="5.14306068420410">
        <ele>463.012085</ele>
        <time>2011-06-02T10:10:29Z</time>
      </trkpt>
      <trkpt lat="44.30953502655029" lon="5.14312505722046">
        <ele>464.454102</ele>
        <time>2011-06-02T10:10:37Z</time>
      </trkpt>
      <trkpt lat="44.30959939956665" lon="5.14321088790894">
        <ele>466.376709</ele>
        <time>2011-06-02T10:10:46Z</time>
      </trkpt>
      <trkpt lat="44.30964231491089" lon="5.14327526092529">
        <ele>466.857422</ele>
        <time>2011-06-02T10:10:57Z</time>
      </trkpt>
      <trkpt lat="44.30966377258301" lon="5.14329671859741">
        <ele>466.376709</ele>
        <time>2011-06-02T10:11:07Z</time>
      </trkpt>
      <trkpt lat="44.30970668792725" lon="5.14331817626953">
        <ele>466.857422</ele>
        <time>2011-06-02T10:11:10Z</time>
      </trkpt>
      <trkpt lat="44.30974960327148" lon="5.14351129531860">
        <ele>469.741333</ele>
        <time>2011-06-02T10:11:24Z</time>
      </trkpt>
      <trkpt lat="44.30977106094360" lon="5.14361858367920">
        <ele>471.663940</ele>
        <time>2011-06-02T10:11:32Z</time>
      </trkpt>
      <trkpt lat="44.30977106094360" lon="5.14366149902344">
        <ele>472.144653</ele>
        <time>2011-06-02T10:11:36Z</time>
      </trkpt>
      <trkpt lat="44.30977106094360" lon="5.14370441436768">
        <ele>472.144653</ele>
        <time>2011-06-02T10:11:40Z</time>
      </trkpt>
      <trkpt lat="44.30979251861572" lon="5.14383316040039">
        <ele>473.106079</ele>
        <time>2011-06-02T10:11:49Z</time>
      </trkpt>
      <trkpt lat="44.30981397628784" lon="5.14396190643311">
        <ele>474.067261</ele>
        <time>2011-06-02T10:12:01Z</time>
      </trkpt>
      <trkpt lat="44.30983543395996" lon="5.14411211013794">
        <ele>475.509277</ele>
        <time>2011-06-02T10:12:14Z</time>
      </trkpt>
      <trkpt lat="44.30987834930420" lon="5.14421939849854">
        <ele>477.431885</ele>
        <time>2011-06-02T10:12:24Z</time>
      </trkpt>
      <trkpt lat="44.30994272232056" lon="5.14426231384277">
        <ele>478.393188</ele>
        <time>2011-06-02T10:12:31Z</time>
      </trkpt>
      <trkpt lat="44.31000709533691" lon="5.14432668685913">
        <ele>478.873901</ele>
        <time>2011-06-02T10:12:40Z</time>
      </trkpt>
      <trkpt lat="44.31007146835327" lon="5.14439105987549">
        <ele>479.354492</ele>
        <time>2011-06-02T10:12:51Z</time>
      </trkpt>
      <trkpt lat="44.31013584136963" lon="5.14443397521973">
        <ele>480.315918</ele>
        <time>2011-06-02T10:12:59Z</time>
      </trkpt>
      <trkpt lat="44.31022167205811" lon="5.14449834823608">
        <ele>479.835083</ele>
        <time>2011-06-02T10:13:10Z</time>
      </trkpt>
      <trkpt lat="44.31026458740234" lon="5.14456272125244">
        <ele>479.354492</ele>
        <time>2011-06-02T10:13:19Z</time>
      </trkpt>
      <trkpt lat="44.31028604507446" lon="5.14458417892456">
        <ele>479.354492</ele>
        <time>2011-06-02T10:13:25Z</time>
      </trkpt>
      <trkpt lat="44.31032896041870" lon="5.14467000961304">
        <ele>481.277222</ele>
        <time>2011-06-02T10:13:32Z</time>
      </trkpt>
      <trkpt lat="44.31041479110718" lon="5.14475584030151">
        <ele>483.199829</ele>
        <time>2011-06-02T10:13:43Z</time>
      </trkpt>
      <trkpt lat="44.31045770645142" lon="5.14484167098999">
        <ele>483.199829</ele>
        <time>2011-06-02T10:13:51Z</time>
      </trkpt>
      <trkpt lat="44.31052207946777" lon="5.14490604400635">
        <ele>483.199829</ele>
        <time>2011-06-02T10:13:58Z</time>
      </trkpt>
      <trkpt lat="44.31056499481201" lon="5.14494895935059">
        <ele>482.238525</ele>
        <time>2011-06-02T10:14:05Z</time>
      </trkpt>
      <trkpt lat="44.31060791015625" lon="5.14503479003906">
        <ele>483.199829</ele>
        <time>2011-06-02T10:14:12Z</time>
      </trkpt>
      <trkpt lat="44.31065082550049" lon="5.14512062072754">
        <ele>484.641846</ele>
        <time>2011-06-02T10:14:21Z</time>
      </trkpt>
      <trkpt lat="44.31071519851685" lon="5.14520645141602">
        <ele>486.564453</ele>
        <time>2011-06-02T10:14:29Z</time>
      </trkpt>
      <trkpt lat="44.31075811386108" lon="5.14529228210449">
        <ele>487.045044</ele>
        <time>2011-06-02T10:14:37Z</time>
      </trkpt>
      <trkpt lat="44.31082248687744" lon="5.14535665512085">
        <ele>487.525635</ele>
        <time>2011-06-02T10:14:45Z</time>
      </trkpt>
      <trkpt lat="44.31088685989380" lon="5.14548540115356">
        <ele>488.967773</ele>
        <time>2011-06-02T10:14:55Z</time>
      </trkpt>
      <trkpt lat="44.31095123291016" lon="5.14559268951416">
        <ele>489.929077</ele>
        <time>2011-06-02T10:15:05Z</time>
      </trkpt>
      <trkpt lat="44.31103706359863" lon="5.14565706253052">
        <ele>490.890381</ele>
        <time>2011-06-02T10:15:15Z</time>
      </trkpt>
      <trkpt lat="44.31116580963135" lon="5.14569997787476">
        <ele>493.293579</ele>
        <time>2011-06-02T10:15:34Z</time>
      </trkpt>
      <trkpt lat="44.31120872497559" lon="5.14576435089111">
        <ele>493.774292</ele>
        <time>2011-06-02T10:15:39Z</time>
      </trkpt>
      <trkpt lat="44.31129455566406" lon="5.14587163925171">
        <ele>494.735596</ele>
        <time>2011-06-02T10:15:49Z</time>
      </trkpt>
      <trkpt lat="44.31135892868042" lon="5.14595746994019">
        <ele>495.696899</ele>
        <time>2011-06-02T10:15:58Z</time>
      </trkpt>
      <trkpt lat="44.31142330169678" lon="5.14602184295654">
        <ele>498.100342</ele>
        <time>2011-06-02T10:16:08Z</time>
      </trkpt>
      <trkpt lat="44.31150913238525" lon="5.14619350433350">
        <ele>500.503540</ele>
        <time>2011-06-02T10:16:22Z</time>
      </trkpt>
      <trkpt lat="44.31153059005737" lon="5.14621496200562">
        <ele>500.984131</ele>
        <time>2011-06-02T10:16:24Z</time>
      </trkpt>
      <trkpt lat="44.31155204772949" lon="5.14623641967773">
        <ele>501.464844</ele>
        <time>2011-06-02T10:16:26Z</time>
      </trkpt>
      <trkpt lat="44.31161642074585" lon="5.14634370803833">
        <ele>502.426147</ele>
        <time>2011-06-02T10:16:36Z</time>
      </trkpt>
      <trkpt lat="44.31163787841797" lon="5.14636516571045">
        <ele>502.426147</ele>
        <time>2011-06-02T10:16:39Z</time>
      </trkpt>
      <trkpt lat="44.31174516677856" lon="5.14647245407104">
        <ele>502.426147</ele>
        <time>2011-06-02T10:16:51Z</time>
      </trkpt>
      <trkpt lat="44.31180953979492" lon="5.14655828475952">
        <ele>502.906738</ele>
        <time>2011-06-02T10:17:00Z</time>
      </trkpt>
      <trkpt lat="44.31183099746704" lon="5.14660120010376">
        <ele>503.868164</ele>
        <time>2011-06-02T10:17:04Z</time>
      </trkpt>
      <trkpt lat="44.31189537048340" lon="5.14670848846436">
        <ele>506.271484</ele>
        <time>2011-06-02T10:17:13Z</time>
      </trkpt>
      <trkpt lat="44.31193828582764" lon="5.14672994613647">
        <ele>507.232788</ele>
        <time>2011-06-02T10:17:18Z</time>
      </trkpt>
      <trkpt lat="44.31198120117188" lon="5.14681577682495">
        <ele>508.194092</ele>
        <time>2011-06-02T10:17:25Z</time>
      </trkpt>
      <trkpt lat="44.31200265884399" lon="5.14688014984131">
        <ele>509.155396</ele>
        <time>2011-06-02T10:17:38Z</time>
      </trkpt>
      <trkpt lat="44.31206703186035" lon="5.14696598052979">
        <ele>508.674683</ele>
        <time>2011-06-02T10:17:49Z</time>
      </trkpt>
      <trkpt lat="44.31213140487671" lon="5.14705181121826">
        <ele>509.155396</ele>
        <time>2011-06-02T10:17:58Z</time>
      </trkpt>
      <trkpt lat="44.31219577789307" lon="5.14711618423462">
        <ele>508.674683</ele>
        <time>2011-06-02T10:18:09Z</time>
      </trkpt>
      <trkpt lat="44.31228160858154" lon="5.14724493026733">
        <ele>509.155396</ele>
        <time>2011-06-02T10:18:21Z</time>
      </trkpt>
      <trkpt lat="44.31234598159790" lon="5.14733076095581">
        <ele>509.155396</ele>
        <time>2011-06-02T10:18:34Z</time>
      </trkpt>
      <trkpt lat="44.31238889694214" lon="5.14741659164429">
        <ele>508.674683</ele>
        <time>2011-06-02T10:18:42Z</time>
      </trkpt>
      <trkpt lat="44.31241035461426" lon="5.14756679534912">
        <ele>510.116699</ele>
        <time>2011-06-02T10:18:50Z</time>
      </trkpt>
      <trkpt lat="44.31249618530273" lon="5.14771699905396">
        <ele>509.155396</ele>
        <time>2011-06-02T10:19:09Z</time>
      </trkpt>
      <trkpt lat="44.31253910064697" lon="5.14782428741455">
        <ele>506.752075</ele>
        <time>2011-06-02T10:19:19Z</time>
      </trkpt>
      <trkpt lat="44.31256055831909" lon="5.14799594879150">
        <ele>504.829468</ele>
        <time>2011-06-02T10:19:32Z</time>
      </trkpt>
      <trkpt lat="44.31260347366333" lon="5.14825344085693">
        <ele>511.078003</ele>
        <time>2011-06-02T10:19:47Z</time>
      </trkpt>
      <trkpt lat="44.31262493133545" lon="5.14840364456177">
        <ele>513.481445</ele>
        <time>2011-06-02T10:19:57Z</time>
      </trkpt>
      <trkpt lat="44.31266784667969" lon="5.14851093292236">
        <ele>514.923340</ele>
        <time>2011-06-02T10:20:06Z</time>
      </trkpt>
      <trkpt lat="44.31277513504028" lon="5.14872550964355">
        <ele>516.845947</ele>
        <time>2011-06-02T10:20:31Z</time>
      </trkpt>
      <trkpt lat="44.31283950805664" lon="5.14887571334839">
        <ele>517.326660</ele>
        <time>2011-06-02T10:20:42Z</time>
      </trkpt>
      <trkpt lat="44.31286096572876" lon="5.14898300170898">
        <ele>517.326660</ele>
        <time>2011-06-02T10:20:51Z</time>
      </trkpt>
      <trkpt lat="44.31290388107300" lon="5.14913320541382">
        <ele>516.845947</ele>
        <time>2011-06-02T10:21:12Z</time>
      </trkpt>
      <trkpt lat="44.31296825408936" lon="5.14939069747925">
        <ele>516.365234</ele>
        <time>2011-06-02T10:21:33Z</time>
      </trkpt>
      <trkpt lat="44.31305408477783" lon="5.14971256256104">
        <ele>518.287842</ele>
        <time>2011-06-02T10:22:00Z</time>
      </trkpt>
      <trkpt lat="44.31307554244995" lon="5.14981985092163">
        <ele>519.249268</ele>
        <time>2011-06-02T10:22:10Z</time>
      </trkpt>
      <trkpt lat="44.31311845779419" lon="5.15052795410156">
        <ele>532.227051</ele>
        <time>2011-06-02T10:23:22Z</time>
      </trkpt>
      <trkpt lat="44.31316137313843" lon="5.15063524246216">
        <ele>535.591553</ele>
        <time>2011-06-02T10:23:35Z</time>
      </trkpt>
      <trkpt lat="44.31318283081055" lon="5.15084981918335">
        <ele>539.436890</ele>
        <time>2011-06-02T10:23:54Z</time>
      </trkpt>
      <trkpt lat="44.31320428848267" lon="5.15108585357666">
        <ele>547.127441</ele>
        <time>2011-06-02T10:24:23Z</time>
      </trkpt>
      <trkpt lat="44.31322574615479" lon="5.15121459960938">
        <ele>550.972656</ele>
        <time>2011-06-02T10:24:34Z</time>
      </trkpt>
      <trkpt lat="44.31329011917114" lon="5.15145063400269">
        <ele>556.740723</ele>
        <time>2011-06-02T10:24:59Z</time>
      </trkpt>
      <trkpt lat="44.31333303451538" lon="5.15160083770752">
        <ele>558.182861</ele>
        <time>2011-06-02T10:25:13Z</time>
      </trkpt>
      <trkpt lat="44.31335449218750" lon="5.15172958374023">
        <ele>558.663330</ele>
        <time>2011-06-02T10:25:24Z</time>
      </trkpt>
      <trkpt lat="44.31339740753174" lon="5.15215873718262">
        <ele>564.911865</ele>
        <time>2011-06-02T10:25:56Z</time>
      </trkpt>
      <trkpt lat="44.31341886520386" lon="5.15237331390381">
        <ele>582.215576</ele>
        <time>2011-06-02T10:26:10Z</time>
      </trkpt>
      <trkpt lat="44.31341886520386" lon="5.15239477157593">
        <ele>583.657471</ele>
        <time>2011-06-02T10:26:13Z</time>
      </trkpt>
      <trkpt lat="44.31346178054810" lon="5.15250205993652">
        <ele>587.983398</ele>
        <time>2011-06-02T10:26:24Z</time>
      </trkpt>
      <trkpt lat="44.31350469589233" lon="5.15263080596924">
        <ele>589.425537</ele>
        <time>2011-06-02T10:26:46Z</time>
      </trkpt>
      <trkpt lat="44.31352615356445" lon="5.15271663665771">
        <ele>588.945068</ele>
        <time>2011-06-02T10:26:57Z</time>
      </trkpt>
      <trkpt lat="44.31354761123657" lon="5.15293121337891">
        <ele>586.541504</ele>
        <time>2011-06-02T10:27:19Z</time>
      </trkpt>
      <trkpt lat="44.31356906890869" lon="5.15310287475586">
        <ele>587.502686</ele>
        <time>2011-06-02T10:27:36Z</time>
      </trkpt>
      <trkpt lat="44.31361198425293" lon="5.15325307846069">
        <ele>589.425537</ele>
        <time>2011-06-02T10:27:47Z</time>
      </trkpt>
      <trkpt lat="44.31365489959717" lon="5.15342473983765">
        <ele>591.348145</ele>
        <time>2011-06-02T10:27:59Z</time>
      </trkpt>
      <trkpt lat="44.31365489959717" lon="5.15357494354248">
        <ele>593.751465</ele>
        <time>2011-06-02T10:28:08Z</time>
      </trkpt>
      <trkpt lat="44.31365489959717" lon="5.15363931655884">
        <ele>594.232178</ele>
        <time>2011-06-02T10:28:13Z</time>
      </trkpt>
      <trkpt lat="44.31367635726929" lon="5.15366077423096">
        <ele>594.712646</ele>
        <time>2011-06-02T10:28:17Z</time>
      </trkpt>
      <trkpt lat="44.31369781494141" lon="5.15376806259155">
        <ele>594.232178</ele>
        <time>2011-06-02T10:28:26Z</time>
      </trkpt>
      <trkpt lat="44.31369781494141" lon="5.15389680862427">
        <ele>596.154785</ele>
        <time>2011-06-02T10:28:40Z</time>
      </trkpt>
      <trkpt lat="44.31371927261353" lon="5.15400409698486">
        <ele>596.635498</ele>
        <time>2011-06-02T10:28:50Z</time>
      </trkpt>
      <trkpt lat="44.31371927261353" lon="5.15402555465698">
        <ele>596.635498</ele>
        <time>2011-06-02T10:29:18Z</time>
      </trkpt>
      <trkpt lat="44.31371927261353" lon="5.15413284301758">
        <ele>599.038574</ele>
        <time>2011-06-02T10:30:37Z</time>
      </trkpt>
      <trkpt lat="44.31374073028565" lon="5.15421867370605">
        <ele>600.480713</ele>
        <time>2011-06-02T10:31:00Z</time>
      </trkpt>
      <trkpt lat="44.31376218795776" lon="5.15471220016479">
        <ele>605.287354</ele>
        <time>2011-06-02T10:31:44Z</time>
      </trkpt>
      <trkpt lat="44.31376218795776" lon="5.15486240386963">
        <ele>610.093750</ele>
        <time>2011-06-02T10:31:55Z</time>
      </trkpt>
      <trkpt lat="44.31378364562988" lon="5.15496969223022">
        <ele>612.016602</ele>
        <time>2011-06-02T10:32:08Z</time>
      </trkpt>
      <trkpt lat="44.31378364562988" lon="5.15514135360718">
        <ele>612.977783</ele>
        <time>2011-06-02T10:32:23Z</time>
      </trkpt>
      <trkpt lat="44.31380510330200" lon="5.15527009963989">
        <ele>616.822998</ele>
        <time>2011-06-02T10:32:34Z</time>
      </trkpt>
      <trkpt lat="44.31380510330200" lon="5.15539884567261">
        <ele>620.187744</ele>
        <time>2011-06-02T10:32:45Z</time>
      </trkpt>
      <trkpt lat="44.31380510330200" lon="5.15542030334473">
        <ele>620.668457</ele>
        <time>2011-06-02T10:32:47Z</time>
      </trkpt>
      <trkpt lat="44.31382656097412" lon="5.15550613403320">
        <ele>622.591064</ele>
        <time>2011-06-02T10:32:54Z</time>
      </trkpt>
      <trkpt lat="44.31382656097412" lon="5.15561342239380">
        <ele>624.994385</ele>
        <time>2011-06-02T10:33:04Z</time>
      </trkpt>
      <trkpt lat="44.31384801864624" lon="5.15569925308228">
        <ele>626.916992</ele>
        <time>2011-06-02T10:33:13Z</time>
      </trkpt>
      <trkpt lat="44.31384801864624" lon="5.15580654144287">
        <ele>628.358887</ele>
        <time>2011-06-02T10:33:27Z</time>
      </trkpt>
      <trkpt lat="44.31384801864624" lon="5.15582799911499">
        <ele>628.839600</ele>
        <time>2011-06-02T10:33:29Z</time>
      </trkpt>
      <trkpt lat="44.31386947631836" lon="5.15595674514771">
        <ele>632.204102</ele>
        <time>2011-06-02T10:33:40Z</time>
      </trkpt>
      <trkpt lat="44.31386947631836" lon="5.15606403350830">
        <ele>633.645996</ele>
        <time>2011-06-02T10:33:49Z</time>
      </trkpt>
      <trkpt lat="44.31389093399048" lon="5.15614986419678">
        <ele>634.607422</ele>
        <time>2011-06-02T10:33:57Z</time>
      </trkpt>
      <trkpt lat="44.31389093399048" lon="5.15623569488525">
        <ele>634.607422</ele>
        <time>2011-06-02T10:34:07Z</time>
      </trkpt>
      <trkpt lat="44.31389093399048" lon="5.15636444091797">
        <ele>634.607422</ele>
        <time>2011-06-02T10:34:20Z</time>
      </trkpt>
      <trkpt lat="44.31391239166260" lon="5.15647172927856">
        <ele>635.568604</ele>
        <time>2011-06-02T10:34:28Z</time>
      </trkpt>
      <trkpt lat="44.31391239166260" lon="5.15660047531128">
        <ele>637.972168</ele>
        <time>2011-06-02T10:34:38Z</time>
      </trkpt>
      <trkpt lat="44.31395530700684" lon="5.15675067901611">
        <ele>638.933594</ele>
        <time>2011-06-02T10:34:52Z</time>
      </trkpt>
      <trkpt lat="44.31399822235107" lon="5.15683650970459">
        <ele>639.894775</ele>
        <time>2011-06-02T10:35:03Z</time>
      </trkpt>
      <trkpt lat="44.31401968002319" lon="5.15696525573730">
        <ele>639.414063</ele>
        <time>2011-06-02T10:35:17Z</time>
      </trkpt>
      <trkpt lat="44.31404113769531" lon="5.15711545944214">
        <ele>639.414063</ele>
        <time>2011-06-02T10:35:30Z</time>
      </trkpt>
      <trkpt lat="44.31404113769531" lon="5.15722274780273">
        <ele>638.452881</ele>
        <time>2011-06-02T10:35:43Z</time>
      </trkpt>
      <trkpt lat="44.31406259536743" lon="5.15735149383545">
        <ele>637.972168</ele>
        <time>2011-06-02T10:35:55Z</time>
      </trkpt>
      <trkpt lat="44.31408405303955" lon="5.15748023986816">
        <ele>637.010742</ele>
        <time>2011-06-02T10:36:05Z</time>
      </trkpt>
      <trkpt lat="44.31410551071167" lon="5.15754461288452">
        <ele>635.088135</ele>
        <time>2011-06-02T10:36:15Z</time>
      </trkpt>
      <trkpt lat="44.31412696838379" lon="5.15773773193359">
        <ele>636.530273</ele>
        <time>2011-06-02T10:36:33Z</time>
      </trkpt>
      <trkpt lat="44.31414842605591" lon="5.15786647796631">
        <ele>638.452881</ele>
        <time>2011-06-02T10:36:44Z</time>
      </trkpt>
      <trkpt lat="44.31416988372803" lon="5.15795230865479">
        <ele>639.414063</ele>
        <time>2011-06-02T10:37:00Z</time>
      </trkpt>
      <trkpt lat="44.31414842605591" lon="5.15823125839233">
        <ele>642.778809</ele>
        <time>2011-06-02T10:38:12Z</time>
      </trkpt>
      <trkpt lat="44.31414842605591" lon="5.15831708908081">
        <ele>646.143311</ele>
        <time>2011-06-02T10:38:24Z</time>
      </trkpt>
      <trkpt lat="44.31416988372803" lon="5.15840291976929">
        <ele>650.469238</ele>
        <time>2011-06-02T10:39:26Z</time>
      </trkpt>
      <trkpt lat="44.31416988372803" lon="5.15846729278564">
        <ele>650.949707</ele>
        <time>2011-06-02T10:39:34Z</time>
      </trkpt>
      <trkpt lat="44.31419134140015" lon="5.15855312347412">
        <ele>652.391846</ele>
        <time>2011-06-02T10:39:41Z</time>
      </trkpt>
      <trkpt lat="44.31419134140015" lon="5.15866041183472">
        <ele>654.314697</ele>
        <time>2011-06-02T10:39:49Z</time>
      </trkpt>
      <trkpt lat="44.31419134140015" lon="5.15872478485107">
        <ele>654.795166</ele>
        <time>2011-06-02T10:39:58Z</time>
      </trkpt>
      <trkpt lat="44.31421279907227" lon="5.15887498855591">
        <ele>659.601807</ele>
        <time>2011-06-02T10:40:10Z</time>
      </trkpt>
      <trkpt lat="44.31421279907227" lon="5.15898227691650">
        <ele>662.485596</ele>
        <time>2011-06-02T10:40:23Z</time>
      </trkpt>
      <trkpt lat="44.31423425674439" lon="5.15908956527710">
        <ele>665.850342</ele>
        <time>2011-06-02T10:40:33Z</time>
      </trkpt>
      <trkpt lat="44.31425571441650" lon="5.15919685363770">
        <ele>667.292236</ele>
        <time>2011-06-02T10:40:45Z</time>
      </trkpt>
      <trkpt lat="44.31425571441650" lon="5.15932559967041">
        <ele>667.772705</ele>
        <time>2011-06-02T10:41:01Z</time>
      </trkpt>
      <trkpt lat="44.31429862976074" lon="5.15949726104736">
        <ele>665.850342</ele>
        <time>2011-06-02T10:41:27Z</time>
      </trkpt>
      <trkpt lat="44.31427717208862" lon="5.15973329544067">
        <ele>667.292236</ele>
        <time>2011-06-02T10:42:42Z</time>
      </trkpt>
      <trkpt lat="44.31429862976074" lon="5.15984058380127">
        <ele>669.215088</ele>
        <time>2011-06-02T10:43:03Z</time>
      </trkpt>
      <trkpt lat="44.31429862976074" lon="5.15994787216187">
        <ele>671.137695</ele>
        <time>2011-06-02T10:43:15Z</time>
      </trkpt>
      <trkpt lat="44.31432008743286" lon="5.16007661819458">
        <ele>673.060303</ele>
        <time>2011-06-02T10:43:26Z</time>
      </trkpt>
      <trkpt lat="44.31432008743286" lon="5.16020536422729">
        <ele>674.502197</ele>
        <time>2011-06-02T10:43:39Z</time>
      </trkpt>
      <trkpt lat="44.31429862976074" lon="5.16035556793213">
        <ele>676.905518</ele>
        <time>2011-06-02T10:43:54Z</time>
      </trkpt>
      <trkpt lat="44.31429862976074" lon="5.16050577163696">
        <ele>684.596191</ele>
        <time>2011-06-02T10:44:06Z</time>
      </trkpt>
      <trkpt lat="44.31432008743286" lon="5.16061305999756">
        <ele>691.805908</ele>
        <time>2011-06-02T10:44:17Z</time>
      </trkpt>
      <trkpt lat="44.31434154510498" lon="5.16067743301392">
        <ele>693.728516</ele>
        <time>2011-06-02T10:44:27Z</time>
      </trkpt>
      <trkpt lat="44.31438446044922" lon="5.16074180603027">
        <ele>695.170410</ele>
        <time>2011-06-02T10:44:35Z</time>
      </trkpt>
      <trkpt lat="44.31442737579346" lon="5.16080617904663">
        <ele>696.131836</ele>
        <time>2011-06-02T10:44:45Z</time>
      </trkpt>
      <trkpt lat="44.31447029113770" lon="5.16091346740723">
        <ele>699.496338</ele>
        <time>2011-06-02T10:44:57Z</time>
      </trkpt>
      <trkpt lat="44.31449174880981" lon="5.16102075576782">
        <ele>703.341797</ele>
        <time>2011-06-02T10:45:08Z</time>
      </trkpt>
      <trkpt lat="44.31453466415405" lon="5.16110658645630">
        <ele>707.187012</ele>
        <time>2011-06-02T10:45:19Z</time>
      </trkpt>
      <trkpt lat="44.31457757949829" lon="5.16123533248901">
        <ele>708.148438</ele>
        <time>2011-06-02T10:45:31Z</time>
      </trkpt>
      <trkpt lat="44.31459903717041" lon="5.16129970550537">
        <ele>708.628906</ele>
        <time>2011-06-02T10:45:42Z</time>
      </trkpt>
      <trkpt lat="44.31464195251465" lon="5.16142845153809">
        <ele>709.590332</ele>
        <time>2011-06-02T10:45:55Z</time>
      </trkpt>
      <trkpt lat="44.31468486785889" lon="5.16155719757080">
        <ele>711.512939</ele>
        <time>2011-06-02T10:46:08Z</time>
      </trkpt>
      <trkpt lat="44.31470632553101" lon="5.16168594360352">
        <ele>712.954834</ele>
        <time>2011-06-02T10:46:20Z</time>
      </trkpt>
      <trkpt lat="44.31472778320313" lon="5.16179323196411">
        <ele>716.319580</ele>
        <time>2011-06-02T10:46:32Z</time>
      </trkpt>
      <trkpt lat="44.31472778320313" lon="5.16187906265259">
        <ele>717.281006</ele>
        <time>2011-06-02T10:46:41Z</time>
      </trkpt>
      <trkpt lat="44.31472778320313" lon="5.16194343566895">
        <ele>718.242188</ele>
        <time>2011-06-02T10:46:50Z</time>
      </trkpt>
      <trkpt lat="44.31470632553101" lon="5.16207218170166">
        <ele>717.761475</ele>
        <time>2011-06-02T10:47:03Z</time>
      </trkpt>
      <trkpt lat="44.31472778320313" lon="5.16217947006226">
        <ele>717.761475</ele>
        <time>2011-06-02T10:47:14Z</time>
      </trkpt>
      <trkpt lat="44.31481361389160" lon="5.16222238540649">
        <ele>717.761475</ele>
        <time>2011-06-02T10:47:30Z</time>
      </trkpt>
      <trkpt lat="44.31483507156372" lon="5.16222238540649">
        <ele>718.242188</ele>
        <time>2011-06-02T10:47:48Z</time>
      </trkpt>
      <trkpt lat="44.31492090225220" lon="5.16224384307861">
        <ele>718.722900</ele>
        <time>2011-06-02T10:47:59Z</time>
      </trkpt>
      <trkpt lat="44.31502819061279" lon="5.16230821609497">
        <ele>720.164795</ele>
        <time>2011-06-02T10:48:09Z</time>
      </trkpt>
      <trkpt lat="44.31511402130127" lon="5.16235113143921">
        <ele>721.606689</ele>
        <time>2011-06-02T10:48:18Z</time>
      </trkpt>
      <trkpt lat="44.31517839431763" lon="5.16243696212769">
        <ele>722.568115</ele>
        <time>2011-06-02T10:48:32Z</time>
      </trkpt>
      <trkpt lat="44.31526422500610" lon="5.16250133514404">
        <ele>726.894043</ele>
        <time>2011-06-02T10:48:42Z</time>
      </trkpt>
      <trkpt lat="44.31532859802246" lon="5.16256570816040">
        <ele>729.777832</ele>
        <time>2011-06-02T10:48:52Z</time>
      </trkpt>
      <trkpt lat="44.31539297103882" lon="5.16260862350464">
        <ele>733.142578</ele>
        <time>2011-06-02T10:49:03Z</time>
      </trkpt>
      <trkpt lat="44.31541442871094" lon="5.16260862350464">
        <ele>733.623291</ele>
        <time>2011-06-02T10:49:07Z</time>
      </trkpt>
      <trkpt lat="44.31547880172730" lon="5.16260862350464">
        <ele>735.065430</ele>
        <time>2011-06-02T10:49:18Z</time>
      </trkpt>
      <trkpt lat="44.31554317474365" lon="5.16260862350464">
        <ele>736.987793</ele>
        <time>2011-06-02T10:49:38Z</time>
      </trkpt>
      <trkpt lat="44.31567192077637" lon="5.16260862350464">
        <ele>736.507324</ele>
        <time>2011-06-02T10:50:13Z</time>
      </trkpt>
      <trkpt lat="44.31567192077637" lon="5.16260862350464">
        <ele>736.987793</ele>
        <time>2011-06-02T10:50:15Z</time>
      </trkpt>
      <trkpt lat="44.31571483612061" lon="5.16263008117676">
        <ele>736.987793</ele>
        <time>2011-06-02T10:50:18Z</time>
      </trkpt>
      <trkpt lat="44.31577920913696" lon="5.16263008117676">
        <ele>738.429932</ele>
        <time>2011-06-02T10:50:26Z</time>
      </trkpt>
      <trkpt lat="44.31588649749756" lon="5.16260862350464">
        <ele>740.352539</ele>
        <time>2011-06-02T10:50:38Z</time>
      </trkpt>
      <trkpt lat="44.31592941284180" lon="5.16260862350464">
        <ele>741.313721</ele>
        <time>2011-06-02T10:50:55Z</time>
      </trkpt>
      <trkpt lat="44.31595087051392" lon="5.16260862350464">
        <ele>741.794434</ele>
        <time>2011-06-02T10:51:08Z</time>
      </trkpt>
      <trkpt lat="44.31607961654663" lon="5.16258716583252">
        <ele>743.236328</ele>
        <time>2011-06-02T10:51:39Z</time>
      </trkpt>
      <trkpt lat="44.31612253189087" lon="5.16263008117676">
        <ele>745.158936</ele>
        <time>2011-06-02T10:51:47Z</time>
      </trkpt>
      <trkpt lat="44.31612253189087" lon="5.16269445419312">
        <ele>745.639648</ele>
        <time>2011-06-02T10:51:51Z</time>
      </trkpt>
      <trkpt lat="44.31607961654663" lon="5.16278028488159">
        <ele>746.601074</ele>
        <time>2011-06-02T10:52:00Z</time>
      </trkpt>
      <trkpt lat="44.31603670120239" lon="5.16282320022583">
        <ele>747.562256</ele>
        <time>2011-06-02T10:52:09Z</time>
      </trkpt>
      <trkpt lat="44.31599378585815" lon="5.16290903091431">
        <ele>747.562256</ele>
        <time>2011-06-02T10:52:22Z</time>
      </trkpt>
      <trkpt lat="44.31597232818604" lon="5.16299486160278">
        <ele>747.562256</ele>
        <time>2011-06-02T10:52:36Z</time>
      </trkpt>
      <trkpt lat="44.31595087051392" lon="5.16308069229126">
        <ele>747.081543</ele>
        <time>2011-06-02T10:52:56Z</time>
      </trkpt>
      <trkpt lat="44.31592941284180" lon="5.16323089599609">
        <ele>747.081543</ele>
        <time>2011-06-02T10:53:10Z</time>
      </trkpt>
      <trkpt lat="44.31590795516968" lon="5.16327381134033">
        <ele>746.601074</ele>
        <time>2011-06-02T10:53:14Z</time>
      </trkpt>
      <trkpt lat="44.31582212448120" lon="5.16348838806152">
        <ele>743.236328</ele>
        <time>2011-06-02T10:53:36Z</time>
      </trkpt>
      <trkpt lat="44.31569337844849" lon="5.16378879547119">
        <ele>738.910645</ele>
        <time>2011-06-02T10:54:08Z</time>
      </trkpt>
      <trkpt lat="44.31567192077637" lon="5.16389608383179">
        <ele>736.026611</ele>
        <time>2011-06-02T10:54:17Z</time>
      </trkpt>
      <trkpt lat="44.31554317474365" lon="5.16443252563477">
        <ele>730.739258</ele>
        <time>2011-06-02T10:55:02Z</time>
      </trkpt>
      <trkpt lat="44.31550025939941" lon="5.16464710235596">
        <ele>731.700439</ele>
        <time>2011-06-02T10:55:29Z</time>
      </trkpt>
      <trkpt lat="44.31545734405518" lon="5.16481876373291">
        <ele>735.545898</ele>
        <time>2011-06-02T10:55:42Z</time>
      </trkpt>
      <trkpt lat="44.31543588638306" lon="5.16507625579834">
        <ele>739.871826</ele>
        <time>2011-06-02T10:56:07Z</time>
      </trkpt>
      <trkpt lat="44.31545734405518" lon="5.16524791717529">
        <ele>741.313721</ele>
        <time>2011-06-02T10:56:24Z</time>
      </trkpt>
      <trkpt lat="44.31543588638306" lon="5.16539812088013">
        <ele>742.275146</ele>
        <time>2011-06-02T10:56:34Z</time>
      </trkpt>
      <trkpt lat="44.31543588638306" lon="5.16544103622437">
        <ele>742.275146</ele>
        <time>2011-06-02T10:56:37Z</time>
      </trkpt>
      <trkpt lat="44.31547880172730" lon="5.16556978225708">
        <ele>743.717041</ele>
        <time>2011-06-02T10:56:46Z</time>
      </trkpt>
      <trkpt lat="44.31547880172730" lon="5.16567707061768">
        <ele>748.043213</ele>
        <time>2011-06-02T10:56:59Z</time>
      </trkpt>
      <trkpt lat="44.31543588638306" lon="5.16580581665039">
        <ele>749.004395</ele>
        <time>2011-06-02T10:57:15Z</time>
      </trkpt>
      <trkpt lat="44.31535005569458" lon="5.16621351242065">
        <ele>752.849609</ele>
        <time>2011-06-02T10:57:51Z</time>
      </trkpt>
      <trkpt lat="44.31537151336670" lon="5.16640663146973">
        <ele>755.252930</ele>
        <time>2011-06-02T10:58:07Z</time>
      </trkpt>
      <trkpt lat="44.31541442871094" lon="5.16655683517456">
        <ele>758.136963</ele>
        <time>2011-06-02T10:58:25Z</time>
      </trkpt>
      <trkpt lat="44.31545734405518" lon="5.16666412353516">
        <ele>758.136963</ele>
        <time>2011-06-02T10:58:34Z</time>
      </trkpt>
      <trkpt lat="44.31550025939941" lon="5.16681432723999">
        <ele>756.214111</ele>
        <time>2011-06-02T10:58:48Z</time>
      </trkpt>
      <trkpt lat="44.31550025939941" lon="5.16690015792847">
        <ele>755.733643</ele>
        <time>2011-06-02T10:58:53Z</time>
      </trkpt>
      <trkpt lat="44.31550025939941" lon="5.16705036163330">
        <ele>753.811035</ele>
        <time>2011-06-02T10:59:11Z</time>
      </trkpt>
      <trkpt lat="44.31550025939941" lon="5.16717910766602">
        <ele>750.927002</ele>
        <time>2011-06-02T10:59:21Z</time>
      </trkpt>
      <trkpt lat="44.31550025939941" lon="5.16735076904297">
        <ele>755.733643</ele>
        <time>2011-06-02T10:59:32Z</time>
      </trkpt>
      <trkpt lat="44.31550025939941" lon="5.16745805740356">
        <ele>758.617432</ele>
        <time>2011-06-02T10:59:45Z</time>
      </trkpt>
      <trkpt lat="44.31547880172730" lon="5.16754388809204">
        <ele>763.424072</ele>
        <time>2011-06-02T10:59:59Z</time>
      </trkpt>
      <trkpt lat="44.31547880172730" lon="5.16765117645264">
        <ele>767.269531</ele>
        <time>2011-06-02T11:00:12Z</time>
      </trkpt>
      <trkpt lat="44.31543588638306" lon="5.16773700714111">
        <ele>769.192139</ele>
        <time>2011-06-02T11:00:26Z</time>
      </trkpt>
      <trkpt lat="44.31539297103882" lon="5.16784429550171">
        <ele>769.192139</ele>
        <time>2011-06-02T11:00:41Z</time>
      </trkpt>
      <trkpt lat="44.31537151336670" lon="5.16795158386230">
        <ele>770.153320</ele>
        <time>2011-06-02T11:00:51Z</time>
      </trkpt>
      <trkpt lat="44.31535005569458" lon="5.16799449920654">
        <ele>769.672852</ele>
        <time>2011-06-02T11:00:53Z</time>
      </trkpt>
      <trkpt lat="44.31532859802246" lon="5.16814470291138">
        <ele>771.595215</ele>
        <time>2011-06-02T11:01:04Z</time>
      </trkpt>
      <trkpt lat="44.31532859802246" lon="5.16823053359985">
        <ele>773.998535</ele>
        <time>2011-06-02T11:01:11Z</time>
      </trkpt>
      <trkpt lat="44.31532859802246" lon="5.16838073730469">
        <ele>776.401855</ele>
        <time>2011-06-02T11:01:23Z</time>
      </trkpt>
      <trkpt lat="44.31530714035034" lon="5.16846656799316">
        <ele>776.401855</ele>
        <time>2011-06-02T11:01:33Z</time>
      </trkpt>
      <trkpt lat="44.31530714035034" lon="5.16848802566528">
        <ele>776.401855</ele>
        <time>2011-06-02T11:01:34Z</time>
      </trkpt>
      <trkpt lat="44.31530714035034" lon="5.16859531402588">
        <ele>777.843750</ele>
        <time>2011-06-02T11:01:42Z</time>
      </trkpt>
      <trkpt lat="44.31530714035034" lon="5.16870260238647">
        <ele>779.766357</ele>
        <time>2011-06-02T11:01:52Z</time>
      </trkpt>
      <trkpt lat="44.31532859802246" lon="5.16887426376343">
        <ele>783.131104</ele>
        <time>2011-06-02T11:02:05Z</time>
      </trkpt>
      <trkpt lat="44.31532859802246" lon="5.16900300979614">
        <ele>784.573242</ele>
        <time>2011-06-02T11:02:14Z</time>
      </trkpt>
      <trkpt lat="44.31532859802246" lon="5.16908884048462">
        <ele>783.131104</ele>
        <time>2011-06-02T11:02:23Z</time>
      </trkpt>
      <trkpt lat="44.31532859802246" lon="5.16919612884521">
        <ele>782.650635</ele>
        <time>2011-06-02T11:02:37Z</time>
      </trkpt>
      <trkpt lat="44.31532859802246" lon="5.16932487487793">
        <ele>784.573242</ele>
        <time>2011-06-02T11:02:52Z</time>
      </trkpt>
      <trkpt lat="44.31535005569458" lon="5.16945362091064">
        <ele>788.418457</ele>
        <time>2011-06-02T11:03:04Z</time>
      </trkpt>
      <trkpt lat="44.31537151336670" lon="5.16958236694336">
        <ele>788.899170</ele>
        <time>2011-06-02T11:03:14Z</time>
      </trkpt>
      <trkpt lat="44.31537151336670" lon="5.16966819763184">
        <ele>789.379639</ele>
        <time>2011-06-02T11:03:25Z</time>
      </trkpt>
      <trkpt lat="44.31530714035034" lon="5.16977548599243">
        <ele>789.379639</ele>
        <time>2011-06-02T11:03:44Z</time>
      </trkpt>
      <trkpt lat="44.31524276733398" lon="5.16983985900879">
        <ele>789.379639</ele>
        <time>2011-06-02T11:03:50Z</time>
      </trkpt>
      <trkpt lat="44.31519985198975" lon="5.16990423202515">
        <ele>791.302246</ele>
        <time>2011-06-02T11:04:01Z</time>
      </trkpt>
      <trkpt lat="44.31522130966187" lon="5.16990423202515">
        <ele>792.263672</ele>
        <time>2011-06-02T11:04:18Z</time>
      </trkpt>
      <trkpt lat="44.31519985198975" lon="5.16990423202515">
        <ele>793.224854</ele>
        <time>2011-06-02T11:04:32Z</time>
      </trkpt>
      <trkpt lat="44.31517839431763" lon="5.16996860504150">
        <ele>793.705566</ele>
        <time>2011-06-02T11:04:48Z</time>
      </trkpt>
      <trkpt lat="44.31517839431763" lon="5.17003297805786">
        <ele>797.070313</ele>
        <time>2011-06-02T11:04:56Z</time>
      </trkpt>
      <trkpt lat="44.31517839431763" lon="5.17016172409058">
        <ele>801.876953</ele>
        <time>2011-06-02T11:05:07Z</time>
      </trkpt>
      <trkpt lat="44.31517839431763" lon="5.17020463943481">
        <ele>803.318848</ele>
        <time>2011-06-02T11:05:26Z</time>
      </trkpt>
      <trkpt lat="44.31517839431763" lon="5.17026901245117">
        <ele>805.241455</ele>
        <time>2011-06-02T11:05:50Z</time>
      </trkpt>
      <trkpt lat="44.31519985198975" lon="5.17035484313965">
        <ele>800.435059</ele>
        <time>2011-06-02T11:06:01Z</time>
      </trkpt>
      <trkpt lat="44.31519985198975" lon="5.17035484313965">
        <ele>799.473633</ele>
        <time>2011-06-02T11:06:16Z</time>
      </trkpt>
      <trkpt lat="44.31524276733398" lon="5.17037630081177">
        <ele>800.915527</ele>
        <time>2011-06-02T11:06:25Z</time>
      </trkpt>
      <trkpt lat="44.31530714035034" lon="5.17046213150024">
        <ele>806.683350</ele>
        <time>2011-06-02T11:06:39Z</time>
      </trkpt>
      <trkpt lat="44.31537151336670" lon="5.17048358917236">
        <ele>807.164063</ele>
        <time>2011-06-02T11:06:56Z</time>
      </trkpt>
      <trkpt lat="44.31539297103882" lon="5.17048358917236">
        <ele>807.164063</ele>
        <time>2011-06-02T11:07:14Z</time>
      </trkpt>
      <trkpt lat="44.31539297103882" lon="5.17048358917236">
        <ele>808.125488</ele>
        <time>2011-06-02T11:08:17Z</time>
      </trkpt>
      <trkpt lat="44.31539297103882" lon="5.17048358917236">
        <ele>807.164063</ele>
        <time>2011-06-02T11:08:35Z</time>
      </trkpt>
      <trkpt lat="44.31539297103882" lon="5.17048358917236">
        <ele>807.164063</ele>
        <time>2011-06-02T11:09:20Z</time>
      </trkpt>
      <trkpt lat="44.31535005569458" lon="5.17048358917236">
        <ele>811.970703</ele>
        <time>2011-06-02T11:22:07Z</time>
      </trkpt>
      <trkpt lat="44.31535005569458" lon="5.17048358917236">
        <ele>812.451416</ele>
        <time>2011-06-02T11:22:40Z</time>
      </trkpt>
      <trkpt lat="44.31535005569458" lon="5.17050504684448">
        <ele>812.451416</ele>
        <time>2011-06-02T11:23:19Z</time>
      </trkpt>
      <trkpt lat="44.31537151336670" lon="5.17050504684448">
        <ele>812.451416</ele>
        <time>2011-06-02T11:23:47Z</time>
      </trkpt>
      <trkpt lat="44.31537151336670" lon="5.17050504684448">
        <ele>812.932129</ele>
        <time>2011-06-02T11:24:21Z</time>
      </trkpt>
      <trkpt lat="44.31532859802246" lon="5.17048358917236">
        <ele>812.451416</ele>
        <time>2011-06-02T11:24:39Z</time>
      </trkpt>
      <trkpt lat="44.31526422500610" lon="5.17039775848389">
        <ele>811.970703</ele>
        <time>2011-06-02T11:24:51Z</time>
      </trkpt>
      <trkpt lat="44.31517839431763" lon="5.17026901245117">
        <ele>809.086670</ele>
        <time>2011-06-02T11:25:07Z</time>
      </trkpt>
      <trkpt lat="44.31511402130127" lon="5.17029047012329">
        <ele>807.644775</ele>
        <time>2011-06-02T11:25:19Z</time>
      </trkpt>
      <trkpt lat="44.31504964828491" lon="5.17037630081177">
        <ele>806.202637</ele>
        <time>2011-06-02T11:25:30Z</time>
      </trkpt>
      <trkpt lat="44.31494235992432" lon="5.17041921615601">
        <ele>802.838135</ele>
        <time>2011-06-02T11:25:41Z</time>
      </trkpt>
      <trkpt lat="44.31494235992432" lon="5.17041921615601">
        <ele>802.357422</ele>
        <time>2011-06-02T11:25:42Z</time>
      </trkpt>
      <trkpt lat="44.31483507156372" lon="5.17048358917236">
        <ele>798.992920</ele>
        <time>2011-06-02T11:25:52Z</time>
      </trkpt>
      <trkpt lat="44.31474924087524" lon="5.17056941986084">
        <ele>796.109131</ele>
        <time>2011-06-02T11:26:03Z</time>
      </trkpt>
      <trkpt lat="44.31464195251465" lon="5.17078399658203">
        <ele>792.744385</ele>
        <time>2011-06-02T11:26:19Z</time>
      </trkpt>
      <trkpt lat="44.31462049484253" lon="5.17089128494263">
        <ele>794.186279</ele>
        <time>2011-06-02T11:26:31Z</time>
      </trkpt>
      <trkpt lat="44.31457757949829" lon="5.17097711563110">
        <ele>792.744385</ele>
        <time>2011-06-02T11:26:37Z</time>
      </trkpt>
      <trkpt lat="44.31453466415405" lon="5.17112731933594">
        <ele>789.379639</ele>
        <time>2011-06-02T11:26:48Z</time>
      </trkpt>
      <trkpt lat="44.31444883346558" lon="5.17140626907349">
        <ele>786.976318</ele>
        <time>2011-06-02T11:27:05Z</time>
      </trkpt>
      <trkpt lat="44.31436300277710" lon="5.17162084579468">
        <ele>785.053955</ele>
        <time>2011-06-02T11:27:20Z</time>
      </trkpt>
      <trkpt lat="44.31429862976074" lon="5.17177104949951">
        <ele>785.053955</ele>
        <time>2011-06-02T11:27:35Z</time>
      </trkpt>
      <trkpt lat="44.31425571441650" lon="5.17185688018799">
        <ele>784.573242</ele>
        <time>2011-06-02T11:27:44Z</time>
      </trkpt>
      <trkpt lat="44.31427717208862" lon="5.17181396484375">
        <ele>785.053955</ele>
        <time>2011-06-02T11:27:48Z</time>
      </trkpt>
      <trkpt lat="44.31436300277710" lon="5.17168521881104">
        <ele>786.015137</ele>
        <time>2011-06-02T11:28:00Z</time>
      </trkpt>
      <trkpt lat="44.31444883346558" lon="5.17144918441772">
        <ele>787.457031</ele>
        <time>2011-06-02T11:28:16Z</time>
      </trkpt>
      <trkpt lat="44.31451320648193" lon="5.17127752304077">
        <ele>786.015137</ele>
        <time>2011-06-02T11:28:31Z</time>
      </trkpt>
      <trkpt lat="44.31453466415405" lon="5.17125606536865">
        <ele>786.495850</ele>
        <time>2011-06-02T11:28:34Z</time>
      </trkpt>
      <trkpt lat="44.31455612182617" lon="5.17121315002441">
        <ele>786.495850</ele>
        <time>2011-06-02T11:28:37Z</time>
      </trkpt>
      <trkpt lat="44.31457757949829" lon="5.17106294631958">
        <ele>790.341064</ele>
        <time>2011-06-02T11:28:46Z</time>
      </trkpt>
      <trkpt lat="44.31459903717041" lon="5.17095565795898">
        <ele>791.302246</ele>
        <time>2011-06-02T11:28:52Z</time>
      </trkpt>
      <trkpt lat="44.31466341018677" lon="5.17078399658203">
        <ele>794.186279</ele>
        <time>2011-06-02T11:29:05Z</time>
      </trkpt>
      <trkpt lat="44.31472778320313" lon="5.17065525054932">
        <ele>794.186279</ele>
        <time>2011-06-02T11:29:15Z</time>
      </trkpt>
      <trkpt lat="44.31477069854736" lon="5.17056941986084">
        <ele>794.186279</ele>
        <time>2011-06-02T11:29:22Z</time>
      </trkpt>
      <trkpt lat="44.31481361389160" lon="5.17052650451660">
        <ele>794.186279</ele>
        <time>2011-06-02T11:29:26Z</time>
      </trkpt>
      <trkpt lat="44.31492090225220" lon="5.17044067382813">
        <ele>796.589844</ele>
        <time>2011-06-02T11:29:38Z</time>
      </trkpt>
      <trkpt lat="44.31507110595703" lon="5.17035484313965">
        <ele>798.512207</ele>
        <time>2011-06-02T11:29:53Z</time>
      </trkpt>
      <trkpt lat="44.31507110595703" lon="5.17024755477905">
        <ele>800.915527</ele>
        <time>2011-06-02T11:30:06Z</time>
      </trkpt>
      <trkpt lat="44.31498527526856" lon="5.17016172409058">
        <ele>803.318848</ele>
        <time>2011-06-02T11:30:20Z</time>
      </trkpt>
      <trkpt lat="44.31487798690796" lon="5.17007589340210">
        <ele>804.280273</ele>
        <time>2011-06-02T11:30:35Z</time>
      </trkpt>
      <trkpt lat="44.31481361389160" lon="5.17005443572998">
        <ele>804.760742</ele>
        <time>2011-06-02T11:30:53Z</time>
      </trkpt>
      <trkpt lat="44.31477069854736" lon="5.17014026641846">
        <ele>804.760742</ele>
        <time>2011-06-02T11:31:03Z</time>
      </trkpt>
      <trkpt lat="44.31474924087524" lon="5.17026901245117">
        <ele>804.760742</ele>
        <time>2011-06-02T11:31:17Z</time>
      </trkpt>
      <trkpt lat="44.31472778320313" lon="5.17029047012329">
        <ele>805.241455</ele>
        <time>2011-06-02T11:31:20Z</time>
      </trkpt>
      <trkpt lat="44.31470632553101" lon="5.17029047012329">
        <ele>805.722168</ele>
        <time>2011-06-02T11:31:33Z</time>
      </trkpt>
      <trkpt lat="44.31470632553101" lon="5.17031192779541">
        <ele>805.241455</ele>
        <time>2011-06-02T11:31:41Z</time>
      </trkpt>
      <trkpt lat="44.31466341018677" lon="5.17033338546753">
        <ele>805.722168</ele>
        <time>2011-06-02T11:31:49Z</time>
      </trkpt>
      <trkpt lat="44.31464195251465" lon="5.17039775848389">
        <ele>807.164063</ele>
        <time>2011-06-02T11:32:03Z</time>
      </trkpt>
      <trkpt lat="44.31462049484253" lon="5.17039775848389">
        <ele>807.164063</ele>
        <time>2011-06-02T11:32:08Z</time>
      </trkpt>
      <trkpt lat="44.31459903717041" lon="5.17041921615601">
        <ele>808.605957</ele>
        <time>2011-06-02T11:32:19Z</time>
      </trkpt>
      <trkpt lat="44.31457757949829" lon="5.17050504684448">
        <ele>809.086670</ele>
        <time>2011-06-02T11:32:32Z</time>
      </trkpt>
      <trkpt lat="44.31455612182617" lon="5.17052650451660">
        <ele>808.605957</ele>
        <time>2011-06-02T11:32:34Z</time>
      </trkpt>
      <trkpt lat="44.31453466415405" lon="5.17056941986084">
        <ele>808.605957</ele>
        <time>2011-06-02T11:32:46Z</time>
      </trkpt>
      <trkpt lat="44.31451320648193" lon="5.17061233520508">
        <ele>809.086670</ele>
        <time>2011-06-02T11:33:02Z</time>
      </trkpt>
      <trkpt lat="44.31447029113770" lon="5.17067670822144">
        <ele>809.086670</ele>
        <time>2011-06-02T11:33:10Z</time>
      </trkpt>
      <trkpt lat="44.31440591812134" lon="5.17078399658203">
        <ele>810.047852</ele>
        <time>2011-06-02T11:33:22Z</time>
      </trkpt>
      <trkpt lat="44.31434154510498" lon="5.17084836959839">
        <ele>811.009277</ele>
        <time>2011-06-02T11:33:33Z</time>
      </trkpt>
      <trkpt lat="44.31427717208862" lon="5.17095565795898">
        <ele>810.528564</ele>
        <time>2011-06-02T11:33:46Z</time>
      </trkpt>
      <trkpt lat="44.31423425674439" lon="5.17099857330322">
        <ele>811.009277</ele>
        <time>2011-06-02T11:33:58Z</time>
      </trkpt>
      <trkpt lat="44.31419134140015" lon="5.17108440399170">
        <ele>811.489990</ele>
        <time>2011-06-02T11:34:09Z</time>
      </trkpt>
      <trkpt lat="44.31414842605591" lon="5.17112731933594">
        <ele>811.009277</ele>
        <time>2011-06-02T11:34:17Z</time>
      </trkpt>
      <trkpt lat="44.31406259536743" lon="5.17127752304077">
        <ele>813.893311</ele>
        <time>2011-06-02T11:34:39Z</time>
      </trkpt>
      <trkpt lat="44.31399822235107" lon="5.17136335372925">
        <ele>813.893311</ele>
        <time>2011-06-02T11:34:50Z</time>
      </trkpt>
      <trkpt lat="44.31391239166260" lon="5.17140626907349">
        <ele>811.009277</ele>
        <time>2011-06-02T11:35:15Z</time>
      </trkpt>
      <trkpt lat="44.31389093399048" lon="5.17144918441772">
        <ele>810.047852</ele>
        <time>2011-06-02T11:35:26Z</time>
      </trkpt>
      <trkpt lat="44.31382656097412" lon="5.17151355743408">
        <ele>809.567383</ele>
        <time>2011-06-02T11:35:40Z</time>
      </trkpt>
      <trkpt lat="44.31376218795776" lon="5.17157793045044">
        <ele>808.605957</ele>
        <time>2011-06-02T11:35:51Z</time>
      </trkpt>
      <trkpt lat="44.31369781494141" lon="5.17162084579468">
        <ele>809.567383</ele>
        <time>2011-06-02T11:36:02Z</time>
      </trkpt>
      <trkpt lat="44.31361198425293" lon="5.17170667648315">
        <ele>810.047852</ele>
        <time>2011-06-02T11:36:15Z</time>
      </trkpt>
      <trkpt lat="44.31356906890869" lon="5.17174959182739">
        <ele>809.567383</ele>
        <time>2011-06-02T11:36:28Z</time>
      </trkpt>
      <trkpt lat="44.31352615356445" lon="5.17177104949951">
        <ele>810.528564</ele>
        <time>2011-06-02T11:36:41Z</time>
      </trkpt>
      <trkpt lat="44.31346178054810" lon="5.17185688018799">
        <ele>809.086670</ele>
        <time>2011-06-02T11:36:53Z</time>
      </trkpt>
      <trkpt lat="44.31339740753174" lon="5.17198562622070">
        <ele>807.644775</ele>
        <time>2011-06-02T11:37:08Z</time>
      </trkpt>
      <trkpt lat="44.31337594985962" lon="5.17200708389282">
        <ele>807.164063</ele>
        <time>2011-06-02T11:37:21Z</time>
      </trkpt>
      <trkpt lat="44.31335449218750" lon="5.17207145690918">
        <ele>807.164063</ele>
        <time>2011-06-02T11:37:32Z</time>
      </trkpt>
      <trkpt lat="44.31324720382690" lon="5.17215728759766">
        <ele>805.722168</ele>
        <time>2011-06-02T11:37:46Z</time>
      </trkpt>
      <trkpt lat="44.31320428848267" lon="5.17222166061401">
        <ele>804.760742</ele>
        <time>2011-06-02T11:37:59Z</time>
      </trkpt>
      <trkpt lat="44.31309700012207" lon="5.17237186431885">
        <ele>802.838135</ele>
        <time>2011-06-02T11:38:14Z</time>
      </trkpt>
      <trkpt lat="44.31301116943359" lon="5.17245769500732">
        <ele>801.876953</ele>
        <time>2011-06-02T11:38:27Z</time>
      </trkpt>
      <trkpt lat="44.31292533874512" lon="5.17256498336792">
        <ele>799.954346</ele>
        <time>2011-06-02T11:38:40Z</time>
      </trkpt>
      <trkpt lat="44.31286096572876" lon="5.17269372940063">
        <ele>797.070313</ele>
        <time>2011-06-02T11:38:54Z</time>
      </trkpt>
      <trkpt lat="44.31279659271240" lon="5.17282247543335">
        <ele>794.186279</ele>
        <time>2011-06-02T11:39:08Z</time>
      </trkpt>
      <trkpt lat="44.31275367736816" lon="5.17288684844971">
        <ele>791.302246</ele>
        <time>2011-06-02T11:39:21Z</time>
      </trkpt>
      <trkpt lat="44.31268930435181" lon="5.17290830612183">
        <ele>789.860352</ele>
        <time>2011-06-02T11:39:30Z</time>
      </trkpt>
      <trkpt lat="44.31262493133545" lon="5.17288684844971">
        <ele>788.899170</ele>
        <time>2011-06-02T11:39:37Z</time>
      </trkpt>
      <trkpt lat="44.31258201599121" lon="5.17286539077759">
        <ele>787.937744</ele>
        <time>2011-06-02T11:39:47Z</time>
      </trkpt>
      <trkpt lat="44.31249618530273" lon="5.17286539077759">
        <ele>784.573242</ele>
        <time>2011-06-02T11:40:00Z</time>
      </trkpt>
      <trkpt lat="44.31236743927002" lon="5.17282247543335">
        <ele>781.689209</ele>
        <time>2011-06-02T11:40:21Z</time>
      </trkpt>
      <trkpt lat="44.31228160858154" lon="5.17282247543335">
        <ele>778.805176</ele>
        <time>2011-06-02T11:40:33Z</time>
      </trkpt>
      <trkpt lat="44.31215286254883" lon="5.17282247543335">
        <ele>773.518066</ele>
        <time>2011-06-02T11:40:50Z</time>
      </trkpt>
      <trkpt lat="44.31208848953247" lon="5.17286539077759">
        <ele>772.556641</ele>
        <time>2011-06-02T11:41:00Z</time>
      </trkpt>
      <trkpt lat="44.31193828582764" lon="5.17286539077759">
        <ele>770.153320</ele>
        <time>2011-06-02T11:41:23Z</time>
      </trkpt>
      <trkpt lat="44.31183099746704" lon="5.17286539077759">
        <ele>770.153320</ele>
        <time>2011-06-02T11:41:40Z</time>
      </trkpt>
      <trkpt lat="44.31165933609009" lon="5.17292976379395">
        <ele>764.385498</ele>
        <time>2011-06-02T11:42:12Z</time>
      </trkpt>
      <trkpt lat="44.31153059005737" lon="5.17295122146606">
        <ele>759.098145</ele>
        <time>2011-06-02T11:42:28Z</time>
      </trkpt>
      <trkpt lat="44.31135892868042" lon="5.17301559448242">
        <ele>760.540039</ele>
        <time>2011-06-02T11:42:45Z</time>
      </trkpt>
      <trkpt lat="44.31131601333618" lon="5.17303705215454">
        <ele>760.540039</ele>
        <time>2011-06-02T11:43:01Z</time>
      </trkpt>
      <trkpt lat="44.31123018264771" lon="5.17305850982666">
        <ele>759.578857</ele>
        <time>2011-06-02T11:43:11Z</time>
      </trkpt>
      <trkpt lat="44.31116580963135" lon="5.17301559448242">
        <ele>760.059326</ele>
        <time>2011-06-02T11:43:24Z</time>
      </trkpt>
      <trkpt lat="44.31103706359863" lon="5.17297267913818">
        <ele>760.059326</ele>
        <time>2011-06-02T11:43:35Z</time>
      </trkpt>
      <trkpt lat="44.31099414825440" lon="5.17295122146606">
        <ele>760.540039</ele>
        <time>2011-06-02T11:43:38Z</time>
      </trkpt>
      <trkpt lat="44.31092977523804" lon="5.17292976379395">
        <ele>760.540039</ele>
        <time>2011-06-02T11:43:45Z</time>
      </trkpt>
      <trkpt lat="44.31080102920532" lon="5.17288684844971">
        <ele>759.578857</ele>
        <time>2011-06-02T11:43:57Z</time>
      </trkpt>
      <trkpt lat="44.31071519851685" lon="5.17282247543335">
        <ele>759.098145</ele>
        <time>2011-06-02T11:44:10Z</time>
      </trkpt>
      <trkpt lat="44.31065082550049" lon="5.17280101776123">
        <ele>759.578857</ele>
        <time>2011-06-02T11:44:16Z</time>
      </trkpt>
      <trkpt lat="44.31056499481201" lon="5.17280101776123">
        <ele>760.059326</ele>
        <time>2011-06-02T11:44:24Z</time>
      </trkpt>
      <trkpt lat="44.31043624877930" lon="5.17284393310547">
        <ele>759.578857</ele>
        <time>2011-06-02T11:44:35Z</time>
      </trkpt>
      <trkpt lat="44.31032896041870" lon="5.17284393310547">
        <ele>759.098145</ele>
        <time>2011-06-02T11:44:44Z</time>
      </trkpt>
      <trkpt lat="44.31020021438599" lon="5.17286539077759">
        <ele>759.098145</ele>
        <time>2011-06-02T11:44:57Z</time>
      </trkpt>
      <trkpt lat="44.31011438369751" lon="5.17284393310547">
        <ele>759.578857</ele>
        <time>2011-06-02T11:45:13Z</time>
      </trkpt>
      <trkpt lat="44.31005001068115" lon="5.17292976379395">
        <ele>759.098145</ele>
        <time>2011-06-02T11:45:41Z</time>
      </trkpt>
      <trkpt lat="44.30989980697632" lon="5.17299413681030">
        <ele>759.578857</ele>
        <time>2011-06-02T11:45:53Z</time>
      </trkpt>
      <trkpt lat="44.30974960327148" lon="5.17307996749878">
        <ele>761.982178</ele>
        <time>2011-06-02T11:46:07Z</time>
      </trkpt>
      <trkpt lat="44.30957794189453" lon="5.17320871353149">
        <ele>763.904541</ele>
        <time>2011-06-02T11:46:20Z</time>
      </trkpt>
      <trkpt lat="44.30940628051758" lon="5.17331600189209">
        <ele>762.943359</ele>
        <time>2011-06-02T11:46:39Z</time>
      </trkpt>
      <trkpt lat="44.30925607681274" lon="5.17333745956421">
        <ele>760.540039</ele>
        <time>2011-06-02T11:46:53Z</time>
      </trkpt>
      <trkpt lat="44.30910587310791" lon="5.17342329025269">
        <ele>758.136963</ele>
        <time>2011-06-02T11:47:07Z</time>
      </trkpt>
      <trkpt lat="44.30893421173096" lon="5.17353057861328">
        <ele>754.772217</ele>
        <time>2011-06-02T11:47:24Z</time>
      </trkpt>
      <trkpt lat="44.30884838104248" lon="5.17353057861328">
        <ele>752.368896</ele>
        <time>2011-06-02T11:47:33Z</time>
      </trkpt>
      <trkpt lat="44.30874109268189" lon="5.17350912094116">
        <ele>749.485107</ele>
        <time>2011-06-02T11:47:43Z</time>
      </trkpt>
      <trkpt lat="44.30865526199341" lon="5.17344474792480">
        <ele>745.639648</ele>
        <time>2011-06-02T11:47:55Z</time>
      </trkpt>
      <trkpt lat="44.30856943130493" lon="5.17340183258057">
        <ele>743.717041</ele>
        <time>2011-06-02T11:48:04Z</time>
      </trkpt>
      <trkpt lat="44.30850505828857" lon="5.17338037490845">
        <ele>740.833008</ele>
        <time>2011-06-02T11:48:16Z</time>
      </trkpt>
      <trkpt lat="44.30839776992798" lon="5.17333745956421">
        <ele>739.391113</ele>
        <time>2011-06-02T11:48:30Z</time>
      </trkpt>
      <trkpt lat="44.30826902389526" lon="5.17329454421997">
        <ele>736.507324</ele>
        <time>2011-06-02T11:48:43Z</time>
      </trkpt>
      <trkpt lat="44.30818319320679" lon="5.17325162887573">
        <ele>733.623291</ele>
        <time>2011-06-02T11:48:53Z</time>
      </trkpt>
      <trkpt lat="44.30811882019043" lon="5.17316579818726">
        <ele>730.739258</ele>
        <time>2011-06-02T11:49:03Z</time>
      </trkpt>
      <trkpt lat="44.30805444717407" lon="5.17310142517090">
        <ele>727.855225</ele>
        <time>2011-06-02T11:49:13Z</time>
      </trkpt>
      <trkpt lat="44.30801153182983" lon="5.17307996749878">
        <ele>726.413330</ele>
        <time>2011-06-02T11:49:17Z</time>
      </trkpt>
      <trkpt lat="44.30792570114136" lon="5.17301559448242">
        <ele>723.048828</ele>
        <time>2011-06-02T11:49:28Z</time>
      </trkpt>
      <trkpt lat="44.30781841278076" lon="5.17297267913818">
        <ele>721.126221</ele>
        <time>2011-06-02T11:49:39Z</time>
      </trkpt>
      <trkpt lat="44.30771112442017" lon="5.17292976379395">
        <ele>719.203613</ele>
        <time>2011-06-02T11:49:50Z</time>
      </trkpt>
      <trkpt lat="44.30760383605957" lon="5.17288684844971">
        <ele>716.800293</ele>
        <time>2011-06-02T11:50:02Z</time>
      </trkpt>
      <trkpt lat="44.30756092071533" lon="5.17284393310547">
        <ele>716.800293</ele>
        <time>2011-06-02T11:50:08Z</time>
      </trkpt>
      <trkpt lat="44.30743217468262" lon="5.17280101776123">
        <ele>714.396729</ele>
        <time>2011-06-02T11:50:20Z</time>
      </trkpt>
      <trkpt lat="44.30734634399414" lon="5.17277956008911">
        <ele>711.993652</ele>
        <time>2011-06-02T11:50:31Z</time>
      </trkpt>
      <trkpt lat="44.30721759796143" lon="5.17271518707275">
        <ele>710.551514</ele>
        <time>2011-06-02T11:50:46Z</time>
      </trkpt>
      <trkpt lat="44.30711030960083" lon="5.17269372940063">
        <ele>707.667725</ele>
        <time>2011-06-02T11:50:59Z</time>
      </trkpt>
      <trkpt lat="44.30700302124023" lon="5.17269372940063">
        <ele>702.380371</ele>
        <time>2011-06-02T11:51:14Z</time>
      </trkpt>
      <trkpt lat="44.30693864822388" lon="5.17269372940063">
        <ele>701.899902</ele>
        <time>2011-06-02T11:51:22Z</time>
      </trkpt>
      <trkpt lat="44.30683135986328" lon="5.17271518707275">
        <ele>701.899902</ele>
        <time>2011-06-02T11:51:32Z</time>
      </trkpt>
      <trkpt lat="44.30683135986328" lon="5.17271518707275">
        <ele>701.899902</ele>
        <time>2011-06-02T11:51:33Z</time>
      </trkpt>
      <trkpt lat="44.30674552917481" lon="5.17267227172852">
        <ele>701.899902</ele>
        <time>2011-06-02T11:51:47Z</time>
      </trkpt>
      <trkpt lat="44.30668115615845" lon="5.17258644104004">
        <ele>701.419189</ele>
        <time>2011-06-02T11:51:58Z</time>
      </trkpt>
      <trkpt lat="44.30661678314209" lon="5.17239332199097">
        <ele>700.458008</ele>
        <time>2011-06-02T11:52:12Z</time>
      </trkpt>
      <trkpt lat="44.30661678314209" lon="5.17237186431885">
        <ele>702.861084</ele>
        <time>2011-06-02T11:52:18Z</time>
      </trkpt>
      <trkpt lat="44.30663824081421" lon="5.17245769500732">
        <ele>702.380371</ele>
        <time>2011-06-02T11:52:24Z</time>
      </trkpt>
      <trkpt lat="44.30665969848633" lon="5.17252206802368">
        <ele>702.380371</ele>
        <time>2011-06-02T11:52:28Z</time>
      </trkpt>
      <trkpt lat="44.30668115615845" lon="5.17256498336792">
        <ele>702.861084</ele>
        <time>2011-06-02T11:52:31Z</time>
      </trkpt>
      <trkpt lat="44.30674552917481" lon="5.17267227172852">
        <ele>702.861084</ele>
        <time>2011-06-02T11:52:40Z</time>
      </trkpt>
      <trkpt lat="44.30678844451904" lon="5.17260789871216">
        <ele>705.745117</ele>
        <time>2011-06-02T11:52:57Z</time>
      </trkpt>
      <trkpt lat="44.30683135986328" lon="5.17252206802368">
        <ele>704.783691</ele>
        <time>2011-06-02T11:53:11Z</time>
      </trkpt>
      <trkpt lat="44.30691719055176" lon="5.17245769500732">
        <ele>702.380371</ele>
        <time>2011-06-02T11:53:25Z</time>
      </trkpt>
      <trkpt lat="44.30696010589600" lon="5.17237186431885">
        <ele>699.015625</ele>
        <time>2011-06-02T11:53:43Z</time>
      </trkpt>
      <trkpt lat="44.30698156356812" lon="5.17228603363037">
        <ele>697.093018</ele>
        <time>2011-06-02T11:53:54Z</time>
      </trkpt>
      <trkpt lat="44.30696010589600" lon="5.17220020294189">
        <ele>695.170410</ele>
        <time>2011-06-02T11:54:12Z</time>
      </trkpt>
      <trkpt lat="44.30698156356812" lon="5.17207145690918">
        <ele>689.883301</ele>
        <time>2011-06-02T11:54:30Z</time>
      </trkpt>
      <trkpt lat="44.30702447891235" lon="5.17204999923706">
        <ele>688.441406</ele>
        <time>2011-06-02T11:54:42Z</time>
      </trkpt>
      <trkpt lat="44.30704593658447" lon="5.17202854156494">
        <ele>687.479980</ele>
        <time>2011-06-02T11:55:05Z</time>
      </trkpt>
      <trkpt lat="44.30713176727295" lon="5.17192125320435">
        <ele>681.231445</ele>
        <time>2011-06-02T11:55:31Z</time>
      </trkpt>
      <trkpt lat="44.30726051330566" lon="5.17164230346680">
        <ele>674.502197</ele>
        <time>2011-06-02T11:56:19Z</time>
      </trkpt>
      <trkpt lat="44.30728197097778" lon="5.17162084579468">
        <ele>674.021484</ele>
        <time>2011-06-02T11:56:21Z</time>
      </trkpt>
      <trkpt lat="44.30736780166626" lon="5.17149209976196">
        <ele>669.695801</ele>
        <time>2011-06-02T11:56:38Z</time>
      </trkpt>
      <trkpt lat="44.30741071701050" lon="5.17136335372925">
        <ele>666.330811</ele>
        <time>2011-06-02T11:56:51Z</time>
      </trkpt>
      <trkpt lat="44.30743217468262" lon="5.17123460769653">
        <ele>664.888916</ele>
        <time>2011-06-02T11:57:01Z</time>
      </trkpt>
      <trkpt lat="44.30745363235474" lon="5.17112731933594">
        <ele>664.408203</ele>
        <time>2011-06-02T11:57:11Z</time>
      </trkpt>
      <trkpt lat="44.30749654769898" lon="5.17102003097534">
        <ele>664.408203</ele>
        <time>2011-06-02T11:57:27Z</time>
      </trkpt>
      <trkpt lat="44.30751800537109" lon="5.17089128494263">
        <ele>664.888916</ele>
        <time>2011-06-02T11:57:37Z</time>
      </trkpt>
      <trkpt lat="44.30753946304321" lon="5.17086982727051">
        <ele>664.408203</ele>
        <time>2011-06-02T11:57:39Z</time>
      </trkpt>
      <trkpt lat="44.30762529373169" lon="5.17076253890991">
        <ele>663.927490</ele>
        <time>2011-06-02T11:57:51Z</time>
      </trkpt>
      <trkpt lat="44.30762529373169" lon="5.17076253890991">
        <ele>663.927490</ele>
        <time>2011-06-02T11:57:52Z</time>
      </trkpt>
      <trkpt lat="44.30762529373169" lon="5.17065525054932">
        <ele>663.447021</ele>
        <time>2011-06-02T11:58:00Z</time>
      </trkpt>
      <trkpt lat="44.30762529373169" lon="5.17056941986084">
        <ele>660.562988</ele>
        <time>2011-06-02T11:58:12Z</time>
      </trkpt>
      <trkpt lat="44.30758237838745" lon="5.17050504684448">
        <ele>659.601807</ele>
        <time>2011-06-02T11:58:26Z</time>
      </trkpt>
      <trkpt lat="44.30758237838745" lon="5.17033338546753">
        <ele>657.679199</ele>
        <time>2011-06-02T11:58:46Z</time>
      </trkpt>
      <trkpt lat="44.30762529373169" lon="5.17022609710693">
        <ele>654.314697</ele>
        <time>2011-06-02T11:58:56Z</time>
      </trkpt>
      <trkpt lat="44.30760383605957" lon="5.17011880874634">
        <ele>653.833984</ele>
        <time>2011-06-02T11:59:10Z</time>
      </trkpt>
      <trkpt lat="44.30758237838745" lon="5.17007589340210">
        <ele>653.353271</ele>
        <time>2011-06-02T11:59:17Z</time>
      </trkpt>
      <trkpt lat="44.30753946304321" lon="5.16990423202515">
        <ele>652.391846</ele>
        <time>2011-06-02T11:59:31Z</time>
      </trkpt>
      <trkpt lat="44.30751800537109" lon="5.16979694366455">
        <ele>649.988525</ele>
        <time>2011-06-02T11:59:42Z</time>
      </trkpt>
      <trkpt lat="44.30751800537109" lon="5.16964673995972">
        <ele>646.143311</ele>
        <time>2011-06-02T12:00:10Z</time>
      </trkpt>
      <trkpt lat="44.30751800537109" lon="5.16951799392700">
        <ele>642.778809</ele>
        <time>2011-06-02T12:00:22Z</time>
      </trkpt>
      <trkpt lat="44.30753946304321" lon="5.16941070556641">
        <ele>641.336670</ele>
        <time>2011-06-02T12:00:35Z</time>
      </trkpt>
      <trkpt lat="44.30756092071533" lon="5.16932487487793">
        <ele>638.933594</ele>
        <time>2011-06-02T12:00:43Z</time>
      </trkpt>
      <trkpt lat="44.30760383605957" lon="5.16919612884521">
        <ele>636.049561</ele>
        <time>2011-06-02T12:00:53Z</time>
      </trkpt>
      <trkpt lat="44.30764675140381" lon="5.16906738281250">
        <ele>633.645996</ele>
        <time>2011-06-02T12:01:07Z</time>
      </trkpt>
      <trkpt lat="44.30771112442017" lon="5.16887426376343">
        <ele>629.320068</ele>
        <time>2011-06-02T12:01:35Z</time>
      </trkpt>
      <trkpt lat="44.30777549743652" lon="5.16876697540283">
        <ele>627.397705</ele>
        <time>2011-06-02T12:01:54Z</time>
      </trkpt>
      <trkpt lat="44.30777549743652" lon="5.16865968704224">
        <ele>626.916992</ele>
        <time>2011-06-02T12:02:06Z</time>
      </trkpt>
      <trkpt lat="44.30779695510864" lon="5.16855239868164">
        <ele>623.071777</ele>
        <time>2011-06-02T12:02:19Z</time>
      </trkpt>
      <trkpt lat="44.30773258209229" lon="5.16844511032104">
        <ele>620.668457</ele>
        <time>2011-06-02T12:02:34Z</time>
      </trkpt>
      <trkpt lat="44.30771112442017" lon="5.16838073730469">
        <ele>620.668457</ele>
        <time>2011-06-02T12:02:50Z</time>
      </trkpt>
      <trkpt lat="44.30764675140381" lon="5.16825199127197">
        <ele>620.668457</ele>
        <time>2011-06-02T12:03:03Z</time>
      </trkpt>
      <trkpt lat="44.30762529373169" lon="5.16812324523926">
        <ele>617.303711</ele>
        <time>2011-06-02T12:03:17Z</time>
      </trkpt>
      <trkpt lat="44.30760383605957" lon="5.16799449920654">
        <ele>613.938965</ele>
        <time>2011-06-02T12:03:29Z</time>
      </trkpt>
      <trkpt lat="44.30758237838745" lon="5.16790866851807">
        <ele>612.497070</ele>
        <time>2011-06-02T12:03:36Z</time>
      </trkpt>
      <trkpt lat="44.30758237838745" lon="5.16777992248535">
        <ele>610.093750</ele>
        <time>2011-06-02T12:03:45Z</time>
      </trkpt>
      <trkpt lat="44.30760383605957" lon="5.16758680343628">
        <ele>609.132568</ele>
        <time>2011-06-02T12:03:58Z</time>
      </trkpt>
      <trkpt lat="44.30760383605957" lon="5.16754388809204">
        <ele>609.613281</ele>
        <time>2011-06-02T12:04:02Z</time>
      </trkpt>
      <trkpt lat="44.30758237838745" lon="5.16752243041992">
        <ele>609.613281</ele>
        <time>2011-06-02T12:04:04Z</time>
      </trkpt>
      <trkpt lat="44.30756092071533" lon="5.16732931137085">
        <ele>609.132568</ele>
        <time>2011-06-02T12:04:17Z</time>
      </trkpt>
      <trkpt lat="44.30751800537109" lon="5.16724348068237">
        <ele>606.729248</ele>
        <time>2011-06-02T12:04:28Z</time>
      </trkpt>
      <trkpt lat="44.30743217468262" lon="5.16711473464966">
        <ele>606.248535</ele>
        <time>2011-06-02T12:04:52Z</time>
      </trkpt>
      <trkpt lat="44.30743217468262" lon="5.16705036163330">
        <ele>606.248535</ele>
        <time>2011-06-02T12:04:56Z</time>
      </trkpt>
      <trkpt lat="44.30738925933838" lon="5.16692161560059">
        <ele>605.287354</ele>
        <time>2011-06-02T12:05:08Z</time>
      </trkpt>
      <trkpt lat="44.30736780166626" lon="5.16677141189575">
        <ele>603.364502</ele>
        <time>2011-06-02T12:05:20Z</time>
      </trkpt>
      <trkpt lat="44.30736780166626" lon="5.16662120819092">
        <ele>599.038574</ele>
        <time>2011-06-02T12:05:32Z</time>
      </trkpt>
      <trkpt lat="44.30734634399414" lon="5.16649246215820">
        <ele>596.154785</ele>
        <time>2011-06-02T12:05:44Z</time>
      </trkpt>
      <trkpt lat="44.30723905563355" lon="5.16642808914185">
        <ele>594.232178</ele>
        <time>2011-06-02T12:05:58Z</time>
      </trkpt>
      <trkpt lat="44.30715322494507" lon="5.16638517379761">
        <ele>591.828857</ele>
        <time>2011-06-02T12:06:12Z</time>
      </trkpt>
      <trkpt lat="44.30708885192871" lon="5.16625642776489">
        <ele>587.021973</ele>
        <time>2011-06-02T12:06:28Z</time>
      </trkpt>
      <trkpt lat="44.30706739425659" lon="5.16612768173218">
        <ele>581.254395</ele>
        <time>2011-06-02T12:06:39Z</time>
      </trkpt>
      <trkpt lat="44.30706739425659" lon="5.16599893569946">
        <ele>574.525146</ele>
        <time>2011-06-02T12:06:51Z</time>
      </trkpt>
      <trkpt lat="44.30706739425659" lon="5.16584873199463">
        <ele>568.276367</ele>
        <time>2011-06-02T12:07:06Z</time>
      </trkpt>
      <trkpt lat="44.30706739425659" lon="5.16582727432251">
        <ele>568.757080</ele>
        <time>2011-06-02T12:07:20Z</time>
      </trkpt>
      <trkpt lat="44.30708885192871" lon="5.16576290130615">
        <ele>569.237793</ele>
        <time>2011-06-02T12:07:31Z</time>
      </trkpt>
      <trkpt lat="44.30713176727295" lon="5.16567707061768">
        <ele>569.718506</ele>
        <time>2011-06-02T12:07:44Z</time>
      </trkpt>
      <trkpt lat="44.30715322494507" lon="5.16565561294556">
        <ele>569.237793</ele>
        <time>2011-06-02T12:07:48Z</time>
      </trkpt>
      <trkpt lat="44.30721759796143" lon="5.16559123992920">
        <ele>568.757080</ele>
        <time>2011-06-02T12:07:56Z</time>
      </trkpt>
      <trkpt lat="44.30726051330566" lon="5.16550540924072">
        <ele>568.276367</ele>
        <time>2011-06-02T12:08:04Z</time>
      </trkpt>
      <trkpt lat="44.30730342864990" lon="5.16546249389648">
        <ele>568.276367</ele>
        <time>2011-06-02T12:08:09Z</time>
      </trkpt>
      <trkpt lat="44.30738925933838" lon="5.16539812088013">
        <ele>565.873291</ele>
        <time>2011-06-02T12:08:19Z</time>
      </trkpt>
      <trkpt lat="44.30747509002686" lon="5.16533374786377">
        <ele>563.950439</ele>
        <time>2011-06-02T12:08:29Z</time>
      </trkpt>
      <trkpt lat="44.30753946304321" lon="5.16526937484741">
        <ele>561.547363</ele>
        <time>2011-06-02T12:08:38Z</time>
      </trkpt>
      <trkpt lat="44.30773258209229" lon="5.16501188278198">
        <ele>564.911865</ele>
        <time>2011-06-02T12:09:35Z</time>
      </trkpt>
      <trkpt lat="44.30775403976440" lon="5.16490459442139">
        <ele>578.851074</ele>
        <time>2011-06-02T12:09:41Z</time>
      </trkpt>
      <trkpt lat="44.30775403976440" lon="5.16479730606079">
        <ele>582.215576</ele>
        <time>2011-06-02T12:09:50Z</time>
      </trkpt>
      <trkpt lat="44.30775403976440" lon="5.16473293304443">
        <ele>582.215576</ele>
        <time>2011-06-02T12:09:54Z</time>
      </trkpt>
      <trkpt lat="44.30775403976440" lon="5.16469001770020">
        <ele>583.176758</ele>
        <time>2011-06-02T12:09:57Z</time>
      </trkpt>
      <trkpt lat="44.30773258209229" lon="5.16453981399536">
        <ele>583.657471</ele>
        <time>2011-06-02T12:10:06Z</time>
      </trkpt>
      <trkpt lat="44.30768966674805" lon="5.16426086425781">
        <ele>582.215576</ele>
        <time>2011-06-02T12:10:23Z</time>
      </trkpt>
      <trkpt lat="44.30766820907593" lon="5.16402482986450">
        <ele>579.812256</ele>
        <time>2011-06-02T12:10:37Z</time>
      </trkpt>
      <trkpt lat="44.30775403976440" lon="5.16381025314331">
        <ele>581.254395</ele>
        <time>2011-06-02T12:10:51Z</time>
      </trkpt>
      <trkpt lat="44.30783987045288" lon="5.16370296478271">
        <ele>581.254395</ele>
        <time>2011-06-02T12:11:03Z</time>
      </trkpt>
      <trkpt lat="44.30792570114136" lon="5.16357421875000">
        <ele>581.254395</ele>
        <time>2011-06-02T12:11:14Z</time>
      </trkpt>
      <trkpt lat="44.30794715881348" lon="5.16350984573364">
        <ele>581.254395</ele>
        <time>2011-06-02T12:11:18Z</time>
      </trkpt>
      <trkpt lat="44.30799007415772" lon="5.16338109970093">
        <ele>581.254395</ele>
        <time>2011-06-02T12:11:27Z</time>
      </trkpt>
      <trkpt lat="44.30801153182983" lon="5.16335964202881">
        <ele>581.254395</ele>
        <time>2011-06-02T12:11:29Z</time>
      </trkpt>
      <trkpt lat="44.30803298950195" lon="5.16323089599609">
        <ele>579.331543</ele>
        <time>2011-06-02T12:11:39Z</time>
      </trkpt>
      <trkpt lat="44.30807590484619" lon="5.16314506530762">
        <ele>578.370361</ele>
        <time>2011-06-02T12:11:44Z</time>
      </trkpt>
      <trkpt lat="44.30814027786255" lon="5.16299486160278">
        <ele>576.447754</ele>
        <time>2011-06-02T12:11:54Z</time>
      </trkpt>
      <trkpt lat="44.30822610855103" lon="5.16286611557007">
        <ele>574.044434</ele>
        <time>2011-06-02T12:12:04Z</time>
      </trkpt>
      <trkpt lat="44.30831193923950" lon="5.16273736953735">
        <ele>572.602539</ele>
        <time>2011-06-02T12:12:13Z</time>
      </trkpt>
      <trkpt lat="44.30835485458374" lon="5.16263008117676">
        <ele>574.044434</ele>
        <time>2011-06-02T12:12:20Z</time>
      </trkpt>
      <trkpt lat="44.30835485458374" lon="5.16254425048828">
        <ele>575.967041</ele>
        <time>2011-06-02T12:12:25Z</time>
      </trkpt>
      <trkpt lat="44.30829048156738" lon="5.16232967376709">
        <ele>574.525146</ele>
        <time>2011-06-02T12:12:39Z</time>
      </trkpt>
      <trkpt lat="44.30820465087891" lon="5.16228675842285">
        <ele>572.121826</ele>
        <time>2011-06-02T12:12:48Z</time>
      </trkpt>
      <trkpt lat="44.30809736251831" lon="5.16232967376709">
        <ele>570.198975</ele>
        <time>2011-06-02T12:12:59Z</time>
      </trkpt>
      <trkpt lat="44.30799007415772" lon="5.16235113143921">
        <ele>569.237793</ele>
        <time>2011-06-02T12:13:10Z</time>
      </trkpt>
      <trkpt lat="44.30783987045288" lon="5.16241550445557">
        <ele>569.718506</ele>
        <time>2011-06-02T12:13:21Z</time>
      </trkpt>
      <trkpt lat="44.30777549743652" lon="5.16241550445557">
        <ele>572.121826</ele>
        <time>2011-06-02T12:13:28Z</time>
      </trkpt>
      <trkpt lat="44.30766820907593" lon="5.16232967376709">
        <ele>573.563965</ele>
        <time>2011-06-02T12:13:39Z</time>
      </trkpt>
      <trkpt lat="44.30764675140381" lon="5.16228675842285">
        <ele>573.083252</ele>
        <time>2011-06-02T12:13:42Z</time>
      </trkpt>
      <trkpt lat="44.30760383605957" lon="5.16213655471802">
        <ele>573.563965</ele>
        <time>2011-06-02T12:13:55Z</time>
      </trkpt>
      <trkpt lat="44.30758237838745" lon="5.16200780868530">
        <ele>574.044434</ele>
        <time>2011-06-02T12:14:04Z</time>
      </trkpt>
      <trkpt lat="44.30758237838745" lon="5.16185760498047">
        <ele>573.563965</ele>
        <time>2011-06-02T12:14:13Z</time>
      </trkpt>
      <trkpt lat="44.30756092071533" lon="5.16175031661987">
        <ele>573.563965</ele>
        <time>2011-06-02T12:14:19Z</time>
      </trkpt>
      <trkpt lat="44.30756092071533" lon="5.16160011291504">
        <ele>572.602539</ele>
        <time>2011-06-02T12:14:28Z</time>
      </trkpt>
      <trkpt lat="44.30756092071533" lon="5.16157865524292">
        <ele>572.602539</ele>
        <time>2011-06-02T12:14:29Z</time>
      </trkpt>
      <trkpt lat="44.30756092071533" lon="5.16155719757080">
        <ele>572.602539</ele>
        <time>2011-06-02T12:14:31Z</time>
      </trkpt>
      <trkpt lat="44.30756092071533" lon="5.16138553619385">
        <ele>572.602539</ele>
        <time>2011-06-02T12:14:43Z</time>
      </trkpt>
      <trkpt lat="44.30756092071533" lon="5.16136407852173">
        <ele>572.602539</ele>
        <time>2011-06-02T12:14:44Z</time>
      </trkpt>
      <trkpt lat="44.30751800537109" lon="5.16123533248901">
        <ele>572.602539</ele>
        <time>2011-06-02T12:14:54Z</time>
      </trkpt>
      <trkpt lat="44.30751800537109" lon="5.16119241714478">
        <ele>573.083252</ele>
        <time>2011-06-02T12:14:56Z</time>
      </trkpt>
      <trkpt lat="44.30745363235474" lon="5.16104221343994">
        <ele>572.121826</ele>
        <time>2011-06-02T12:15:05Z</time>
      </trkpt>
      <trkpt lat="44.30738925933838" lon="5.16082763671875">
        <ele>569.718506</ele>
        <time>2011-06-02T12:15:19Z</time>
      </trkpt>
      <trkpt lat="44.30732488632202" lon="5.16061305999756">
        <ele>568.757080</ele>
        <time>2011-06-02T12:15:33Z</time>
      </trkpt>
      <trkpt lat="44.30730342864990" lon="5.16048431396484">
        <ele>568.276367</ele>
        <time>2011-06-02T12:15:46Z</time>
      </trkpt>
      <trkpt lat="44.30728197097778" lon="5.16050577163696">
        <ele>569.237793</ele>
        <time>2011-06-02T12:15:52Z</time>
      </trkpt>
      <trkpt lat="44.30719614028931" lon="5.16035556793213">
        <ele>578.851074</ele>
        <time>2011-06-02T12:16:02Z</time>
      </trkpt>
      <trkpt lat="44.30713176727295" lon="5.16018390655518">
        <ele>584.618896</ele>
        <time>2011-06-02T12:16:13Z</time>
      </trkpt>
      <trkpt lat="44.30706739425659" lon="5.16005516052246">
        <ele>586.541504</ele>
        <time>2011-06-02T12:16:24Z</time>
      </trkpt>
      <trkpt lat="44.30696010589600" lon="5.15986204147339">
        <ele>586.541504</ele>
        <time>2011-06-02T12:16:38Z</time>
      </trkpt>
      <trkpt lat="44.30687427520752" lon="5.15971183776855">
        <ele>584.618896</ele>
        <time>2011-06-02T12:16:49Z</time>
      </trkpt>
      <trkpt lat="44.30668115615845" lon="5.15960454940796">
        <ele>582.696289</ele>
        <time>2011-06-02T12:17:06Z</time>
      </trkpt>
      <trkpt lat="44.30668115615845" lon="5.15960454940796">
        <ele>582.215576</ele>
        <time>2011-06-02T12:17:07Z</time>
      </trkpt>
      <trkpt lat="44.30661678314209" lon="5.15962600708008">
        <ele>580.292969</ele>
        <time>2011-06-02T12:17:20Z</time>
      </trkpt>
      <trkpt lat="44.30661678314209" lon="5.15962600708008">
        <ele>580.773682</ele>
        <time>2011-06-02T12:17:37Z</time>
      </trkpt>
      <trkpt lat="44.30657386779785" lon="5.15958309173584">
        <ele>579.812256</ele>
        <time>2011-06-02T12:17:45Z</time>
      </trkpt>
      <trkpt lat="44.30644512176514" lon="5.15938997268677">
        <ele>580.292969</ele>
        <time>2011-06-02T12:18:01Z</time>
      </trkpt>
      <trkpt lat="44.30638074874878" lon="5.15930414199829">
        <ele>580.773682</ele>
        <time>2011-06-02T12:18:15Z</time>
      </trkpt>
      <trkpt lat="44.30633783340454" lon="5.15928268432617">
        <ele>580.773682</ele>
        <time>2011-06-02T12:18:29Z</time>
      </trkpt>
      <trkpt lat="44.30627346038818" lon="5.15921831130981">
        <ele>575.486328</ele>
        <time>2011-06-02T12:18:53Z</time>
      </trkpt>
      <trkpt lat="44.30620908737183" lon="5.15911102294922">
        <ele>573.083252</ele>
        <time>2011-06-02T12:19:06Z</time>
      </trkpt>
      <trkpt lat="44.30612325668335" lon="5.15898227691650">
        <ele>570.198975</ele>
        <time>2011-06-02T12:19:22Z</time>
      </trkpt>
      <trkpt lat="44.30610179901123" lon="5.15893936157227">
        <ele>569.718506</ele>
        <time>2011-06-02T12:19:36Z</time>
      </trkpt>
      <trkpt lat="44.30605888366699" lon="5.15883207321167">
        <ele>568.276367</ele>
        <time>2011-06-02T12:19:46Z</time>
      </trkpt>
      <trkpt lat="44.30603742599487" lon="5.15866041183472">
        <ele>565.873291</ele>
        <time>2011-06-02T12:19:57Z</time>
      </trkpt>
      <trkpt lat="44.30603742599487" lon="5.15855312347412">
        <ele>563.950439</ele>
        <time>2011-06-02T12:20:06Z</time>
      </trkpt>
      <trkpt lat="44.30610179901123" lon="5.15840291976929">
        <ele>560.585938</ele>
        <time>2011-06-02T12:20:29Z</time>
      </trkpt>
      <trkpt lat="44.30618762969971" lon="5.15816688537598">
        <ele>557.221436</ele>
        <time>2011-06-02T12:20:45Z</time>
      </trkpt>
      <trkpt lat="44.30623054504395" lon="5.15803813934326">
        <ele>557.221436</ele>
        <time>2011-06-02T12:20:56Z</time>
      </trkpt>
      <trkpt lat="44.30625200271606" lon="5.15799522399902">
        <ele>558.663330</ele>
        <time>2011-06-02T12:21:02Z</time>
      </trkpt>
      <trkpt lat="44.30627346038818" lon="5.15784502029419">
        <ele>567.315186</ele>
        <time>2011-06-02T12:21:15Z</time>
      </trkpt>
      <trkpt lat="44.30629491806030" lon="5.15778064727783">
        <ele>566.834473</ele>
        <time>2011-06-02T12:21:22Z</time>
      </trkpt>
      <trkpt lat="44.30631637573242" lon="5.15767335891724">
        <ele>568.276367</ele>
        <time>2011-06-02T12:21:29Z</time>
      </trkpt>
      <trkpt lat="44.30633783340454" lon="5.15760898590088">
        <ele>569.718506</ele>
        <time>2011-06-02T12:21:38Z</time>
      </trkpt>
      <trkpt lat="44.30635929107666" lon="5.15752315521240">
        <ele>569.237793</ele>
        <time>2011-06-02T12:21:45Z</time>
      </trkpt>
      <trkpt lat="44.30638074874878" lon="5.15750169754028">
        <ele>569.237793</ele>
        <time>2011-06-02T12:21:55Z</time>
      </trkpt>
      <trkpt lat="44.30644512176514" lon="5.15739440917969">
        <ele>570.198975</ele>
        <time>2011-06-02T12:22:03Z</time>
      </trkpt>
      <trkpt lat="44.30648803710938" lon="5.15726566314697">
        <ele>568.757080</ele>
        <time>2011-06-02T12:22:12Z</time>
      </trkpt>
      <trkpt lat="44.30653095245361" lon="5.15717983245850">
        <ele>569.237793</ele>
        <time>2011-06-02T12:22:26Z</time>
      </trkpt>
      <trkpt lat="44.30657386779785" lon="5.15705108642578">
        <ele>567.795654</ele>
        <time>2011-06-02T12:22:40Z</time>
      </trkpt>
      <trkpt lat="44.30659532546997" lon="5.15702962875366">
        <ele>565.392578</ele>
        <time>2011-06-02T12:23:00Z</time>
      </trkpt>
      <trkpt lat="44.30657386779785" lon="5.15702962875366">
        <ele>564.431152</ele>
        <time>2011-06-02T12:23:15Z</time>
      </trkpt>
      <trkpt lat="44.30657386779785" lon="5.15702962875366">
        <ele>564.911865</ele>
        <time>2011-06-02T12:23:33Z</time>
      </trkpt>
      <trkpt lat="44.30655241012573" lon="5.15694379806519">
        <ele>564.431152</ele>
        <time>2011-06-02T12:23:47Z</time>
      </trkpt>
      <trkpt lat="44.30657386779785" lon="5.15690088272095">
        <ele>563.469971</ele>
        <time>2011-06-02T12:23:53Z</time>
      </trkpt>
      <trkpt lat="44.30653095245361" lon="5.15664339065552">
        <ele>564.911865</ele>
        <time>2011-06-02T12:24:11Z</time>
      </trkpt>
      <trkpt lat="44.30650949478149" lon="5.15649318695068">
        <ele>564.911865</ele>
        <time>2011-06-02T12:24:26Z</time>
      </trkpt>
      <trkpt lat="44.30646657943726" lon="5.15630006790161">
        <ele>564.911865</ele>
        <time>2011-06-02T12:24:42Z</time>
      </trkpt>
      <trkpt lat="44.30644512176514" lon="5.15625715255737">
        <ele>564.911865</ele>
        <time>2011-06-02T12:24:45Z</time>
      </trkpt>
      <trkpt lat="44.30642366409302" lon="5.15610694885254">
        <ele>565.392578</ele>
        <time>2011-06-02T12:24:59Z</time>
      </trkpt>
      <trkpt lat="44.30640220642090" lon="5.15602111816406">
        <ele>565.392578</ele>
        <time>2011-06-02T12:25:08Z</time>
      </trkpt>
      <trkpt lat="44.30640220642090" lon="5.15599966049194">
        <ele>565.392578</ele>
        <time>2011-06-02T12:25:09Z</time>
      </trkpt>
      <trkpt lat="44.30640220642090" lon="5.15597820281982">
        <ele>564.911865</ele>
        <time>2011-06-02T12:25:11Z</time>
      </trkpt>
      <trkpt lat="44.30640220642090" lon="5.15580654144287">
        <ele>563.950439</ele>
        <time>2011-06-02T12:25:22Z</time>
      </trkpt>
      <trkpt lat="44.30642366409302" lon="5.15569925308228">
        <ele>562.989258</ele>
        <time>2011-06-02T12:25:27Z</time>
      </trkpt>
      <trkpt lat="44.30648803710938" lon="5.15561342239380">
        <ele>561.066650</ele>
        <time>2011-06-02T12:25:35Z</time>
      </trkpt>
      <trkpt lat="44.30661678314209" lon="5.15548467636108">
        <ele>558.663330</ele>
        <time>2011-06-02T12:25:49Z</time>
      </trkpt>
      <trkpt lat="44.30672407150269" lon="5.15544176101685">
        <ele>557.702148</ele>
        <time>2011-06-02T12:25:58Z</time>
      </trkpt>
      <trkpt lat="44.30683135986328" lon="5.15535593032837">
        <ele>557.221436</ele>
        <time>2011-06-02T12:26:09Z</time>
      </trkpt>
      <trkpt lat="44.30683135986328" lon="5.15533447265625">
        <ele>556.740723</ele>
        <time>2011-06-02T12:26:12Z</time>
      </trkpt>
      <trkpt lat="44.30685281753540" lon="5.15529155731201">
        <ele>556.740723</ele>
        <time>2011-06-02T12:26:14Z</time>
      </trkpt>
      <trkpt lat="44.30680990219116" lon="5.15518426895142">
        <ele>555.298584</ele>
        <time>2011-06-02T12:26:25Z</time>
      </trkpt>
      <trkpt lat="44.30678844451904" lon="5.15516281127930">
        <ele>554.817871</ele>
        <time>2011-06-02T12:26:26Z</time>
      </trkpt>
      <trkpt lat="44.30665969848633" lon="5.15511989593506">
        <ele>553.375977</ele>
        <time>2011-06-02T12:26:39Z</time>
      </trkpt>
      <trkpt lat="44.30646657943726" lon="5.15505552291870">
        <ele>553.375977</ele>
        <time>2011-06-02T12:26:55Z</time>
      </trkpt>
      <trkpt lat="44.30631637573242" lon="5.15496969223022">
        <ele>553.856689</ele>
        <time>2011-06-02T12:27:10Z</time>
      </trkpt>
      <trkpt lat="44.30616617202759" lon="5.15481948852539">
        <ele>554.817871</ele>
        <time>2011-06-02T12:27:25Z</time>
      </trkpt>
      <trkpt lat="44.30612325668335" lon="5.15460491180420">
        <ele>556.260010</ele>
        <time>2011-06-02T12:27:39Z</time>
      </trkpt>
      <trkpt lat="44.30610179901123" lon="5.15456199645996">
        <ele>556.260010</ele>
        <time>2011-06-02T12:27:41Z</time>
      </trkpt>
      <trkpt lat="44.30610179901123" lon="5.15439033508301">
        <ele>555.298584</ele>
        <time>2011-06-02T12:27:53Z</time>
      </trkpt>
      <trkpt lat="44.30608034133911" lon="5.15415430068970">
        <ele>554.817871</ele>
        <time>2011-06-02T12:28:06Z</time>
      </trkpt>
      <trkpt lat="44.30608034133911" lon="5.15404701232910">
        <ele>554.817871</ele>
        <time>2011-06-02T12:28:12Z</time>
      </trkpt>
      <trkpt lat="44.30605888366699" lon="5.15398263931274">
        <ele>554.337402</ele>
        <time>2011-06-02T12:28:17Z</time>
      </trkpt>
      <trkpt lat="44.30605888366699" lon="5.15383243560791">
        <ele>553.856689</ele>
        <time>2011-06-02T12:28:28Z</time>
      </trkpt>
      <trkpt lat="44.30608034133911" lon="5.15378952026367">
        <ele>553.375977</ele>
        <time>2011-06-02T12:28:41Z</time>
      </trkpt>
      <trkpt lat="44.30608034133911" lon="5.15368223190308">
        <ele>552.895264</ele>
        <time>2011-06-02T12:28:48Z</time>
      </trkpt>
      <trkpt lat="44.30605888366699" lon="5.15357494354248">
        <ele>551.934082</ele>
        <time>2011-06-02T12:29:03Z</time>
      </trkpt>
      <trkpt lat="44.30599451065064" lon="5.15351057052612">
        <ele>550.492188</ele>
        <time>2011-06-02T12:29:21Z</time>
      </trkpt>
      <trkpt lat="44.30599451065064" lon="5.15348911285400">
        <ele>550.492188</ele>
        <time>2011-06-02T12:29:22Z</time>
      </trkpt>
      <trkpt lat="44.30593013763428" lon="5.15336036682129">
        <ele>547.608154</ele>
        <time>2011-06-02T12:29:33Z</time>
      </trkpt>
      <trkpt lat="44.30580139160156" lon="5.15323162078857">
        <ele>541.359497</ele>
        <time>2011-06-02T12:29:51Z</time>
      </trkpt>
      <trkpt lat="44.30569410324097" lon="5.15318870544434">
        <ele>538.956299</ele>
        <time>2011-06-02T12:30:00Z</time>
      </trkpt>
      <trkpt lat="44.30560827255249" lon="5.15323162078857">
        <ele>539.436890</ele>
        <time>2011-06-02T12:30:09Z</time>
      </trkpt>
      <trkpt lat="44.30554389953613" lon="5.15329599380493">
        <ele>540.398315</ele>
        <time>2011-06-02T12:30:17Z</time>
      </trkpt>
      <trkpt lat="44.30545806884766" lon="5.15340328216553">
        <ele>540.398315</ele>
        <time>2011-06-02T12:30:30Z</time>
      </trkpt>
      <trkpt lat="44.30541515350342" lon="5.15346765518188">
        <ele>540.878906</ele>
        <time>2011-06-02T12:30:34Z</time>
      </trkpt>
      <trkpt lat="44.30522203445435" lon="5.15359640121460">
        <ele>542.320923</ele>
        <time>2011-06-02T12:30:51Z</time>
      </trkpt>
      <trkpt lat="44.30505037307739" lon="5.15357494354248">
        <ele>546.166260</ele>
        <time>2011-06-02T12:31:05Z</time>
      </trkpt>
      <trkpt lat="44.30502891540527" lon="5.15353202819824">
        <ele>546.166260</ele>
        <time>2011-06-02T12:31:09Z</time>
      </trkpt>
      <trkpt lat="44.30490016937256" lon="5.15340328216553">
        <ele>546.646851</ele>
        <time>2011-06-02T12:31:24Z</time>
      </trkpt>
      <trkpt lat="44.30470705032349" lon="5.15342473983765">
        <ele>549.050049</ele>
        <time>2011-06-02T12:31:39Z</time>
      </trkpt>
      <trkpt lat="44.30457830429077" lon="5.15342473983765">
        <ele>548.569336</ele>
        <time>2011-06-02T12:31:50Z</time>
      </trkpt>
      <trkpt lat="44.30442810058594" lon="5.15344619750977">
        <ele>548.088867</ele>
        <time>2011-06-02T12:32:03Z</time>
      </trkpt>
      <trkpt lat="44.30432081222534" lon="5.15344619750977">
        <ele>546.166260</ele>
        <time>2011-06-02T12:32:13Z</time>
      </trkpt>
      <trkpt lat="44.30419206619263" lon="5.15346765518188">
        <ele>542.320923</ele>
        <time>2011-06-02T12:32:25Z</time>
      </trkpt>
      <trkpt lat="44.30395603179932" lon="5.15348911285400">
        <ele>537.514282</ele>
        <time>2011-06-02T12:32:41Z</time>
      </trkpt>
      <trkpt lat="44.30378437042236" lon="5.15351057052612">
        <ele>533.668945</ele>
        <time>2011-06-02T12:32:56Z</time>
      </trkpt>
      <trkpt lat="44.30363416671753" lon="5.15353202819824">
        <ele>530.785156</ele>
        <time>2011-06-02T12:33:08Z</time>
      </trkpt>
      <trkpt lat="44.30352687835693" lon="5.15353202819824">
        <ele>528.381836</ele>
        <time>2011-06-02T12:33:19Z</time>
      </trkpt>
      <trkpt lat="44.30335521697998" lon="5.15346765518188">
        <ele>522.133179</ele>
        <time>2011-06-02T12:33:35Z</time>
      </trkpt>
      <trkpt lat="44.30326938629150" lon="5.15336036682129">
        <ele>515.404053</ele>
        <time>2011-06-02T12:33:48Z</time>
      </trkpt>
      <trkpt lat="44.30324792861939" lon="5.15325307846069">
        <ele>510.597290</ele>
        <time>2011-06-02T12:33:56Z</time>
      </trkpt>
      <trkpt lat="44.30324792861939" lon="5.15308141708374">
        <ele>509.155396</ele>
        <time>2011-06-02T12:34:07Z</time>
      </trkpt>
      <trkpt lat="44.30326938629150" lon="5.15293121337891">
        <ele>508.674683</ele>
        <time>2011-06-02T12:34:18Z</time>
      </trkpt>
      <trkpt lat="44.30329084396362" lon="5.15284538269043">
        <ele>507.713501</ele>
        <time>2011-06-02T12:34:24Z</time>
      </trkpt>
      <trkpt lat="44.30329084396362" lon="5.15275955200195">
        <ele>506.271484</ele>
        <time>2011-06-02T12:34:30Z</time>
      </trkpt>
      <trkpt lat="44.30331230163574" lon="5.15263080596924">
        <ele>504.348877</ele>
        <time>2011-06-02T12:34:38Z</time>
      </trkpt>
      <trkpt lat="44.30339813232422" lon="5.15248060226440">
        <ele>503.387451</ele>
        <time>2011-06-02T12:34:54Z</time>
      </trkpt>
      <trkpt lat="44.30346250534058" lon="5.15235185623169">
        <ele>502.906738</ele>
        <time>2011-06-02T12:35:04Z</time>
      </trkpt>
      <trkpt lat="44.30350542068481" lon="5.15228748321533">
        <ele>501.464844</ele>
        <time>2011-06-02T12:35:09Z</time>
      </trkpt>
      <trkpt lat="44.30354833602905" lon="5.15218019485474">
        <ele>499.542236</ele>
        <time>2011-06-02T12:35:17Z</time>
      </trkpt>
      <trkpt lat="44.30356979370117" lon="5.15213727951050">
        <ele>499.061523</ele>
        <time>2011-06-02T12:35:20Z</time>
      </trkpt>
      <trkpt lat="44.30359125137329" lon="5.15209436416626">
        <ele>497.619629</ele>
        <time>2011-06-02T12:35:24Z</time>
      </trkpt>
      <trkpt lat="44.30361270904541" lon="5.15196561813354">
        <ele>495.216187</ele>
        <time>2011-06-02T12:35:33Z</time>
      </trkpt>
      <trkpt lat="44.30365562438965" lon="5.15185832977295">
        <ele>492.332397</ele>
        <time>2011-06-02T12:35:42Z</time>
      </trkpt>
      <trkpt lat="44.30367708206177" lon="5.15179395675659">
        <ele>491.851685</ele>
        <time>2011-06-02T12:35:45Z</time>
      </trkpt>
      <trkpt lat="44.30367708206177" lon="5.15170812606812">
        <ele>490.890381</ele>
        <time>2011-06-02T12:35:50Z</time>
      </trkpt>
      <trkpt lat="44.30367708206177" lon="5.15162229537964">
        <ele>489.929077</ele>
        <time>2011-06-02T12:35:54Z</time>
      </trkpt>
      <trkpt lat="44.30376291275024" lon="5.15140771865845">
        <ele>485.603027</ele>
        <time>2011-06-02T12:36:08Z</time>
      </trkpt>
      <trkpt lat="44.30378437042236" lon="5.15136480331421">
        <ele>485.122437</ele>
        <time>2011-06-02T12:36:11Z</time>
      </trkpt>
      <trkpt lat="44.30384874343872" lon="5.15117168426514">
        <ele>484.161133</ele>
        <time>2011-06-02T12:36:23Z</time>
      </trkpt>
      <trkpt lat="44.30387020111084" lon="5.15104293823242">
        <ele>480.796631</ele>
        <time>2011-06-02T12:36:32Z</time>
      </trkpt>
      <trkpt lat="44.30391311645508" lon="5.15095710754395">
        <ele>478.393188</ele>
        <time>2011-06-02T12:36:38Z</time>
      </trkpt>
      <trkpt lat="44.30393457412720" lon="5.15082836151123">
        <ele>475.028687</ele>
        <time>2011-06-02T12:36:46Z</time>
      </trkpt>
      <trkpt lat="44.30395603179932" lon="5.15069961547852">
        <ele>471.183350</ele>
        <time>2011-06-02T12:36:54Z</time>
      </trkpt>
      <trkpt lat="44.30399894714356" lon="5.15057086944580">
        <ele>467.338135</ele>
        <time>2011-06-02T12:37:02Z</time>
      </trkpt>
      <trkpt lat="44.30399894714356" lon="5.15052795410156">
        <ele>466.376709</ele>
        <time>2011-06-02T12:37:04Z</time>
      </trkpt>
      <trkpt lat="44.30402040481567" lon="5.15029191970825">
        <ele>464.934814</ele>
        <time>2011-06-02T12:37:18Z</time>
      </trkpt>
      <trkpt lat="44.30399894714356" lon="5.15009880065918">
        <ele>460.608765</ele>
        <time>2011-06-02T12:37:30Z</time>
      </trkpt>
      <trkpt lat="44.30395603179932" lon="5.14997005462646">
        <ele>457.724976</ele>
        <time>2011-06-02T12:37:37Z</time>
      </trkpt>
      <trkpt lat="44.30387020111084" lon="5.14977693557739">
        <ele>456.763550</ele>
        <time>2011-06-02T12:37:50Z</time>
      </trkpt>
      <trkpt lat="44.30384874343872" lon="5.14960527420044">
        <ele>454.840820</ele>
        <time>2011-06-02T12:38:02Z</time>
      </trkpt>
      <trkpt lat="44.30380582809448" lon="5.14941215515137">
        <ele>454.840820</ele>
        <time>2011-06-02T12:38:14Z</time>
      </trkpt>
      <trkpt lat="44.30378437042236" lon="5.14917612075806">
        <ele>458.205566</ele>
        <time>2011-06-02T12:38:26Z</time>
      </trkpt>
      <trkpt lat="44.30363416671753" lon="5.14900445938110">
        <ele>470.702637</ele>
        <time>2011-06-02T12:38:37Z</time>
      </trkpt>
      <trkpt lat="44.30344104766846" lon="5.14887571334839">
        <ele>475.989868</ele>
        <time>2011-06-02T12:38:51Z</time>
      </trkpt>
      <trkpt lat="44.30335521697998" lon="5.14874696731567">
        <ele>475.028687</ele>
        <time>2011-06-02T12:39:01Z</time>
      </trkpt>
      <trkpt lat="44.30331230163574" lon="5.14855384826660">
        <ele>472.144653</ele>
        <time>2011-06-02T12:39:14Z</time>
      </trkpt>
      <trkpt lat="44.30329084396362" lon="5.14836072921753">
        <ele>469.260742</ele>
        <time>2011-06-02T12:39:25Z</time>
      </trkpt>
      <trkpt lat="44.30329084396362" lon="5.14829635620117">
        <ele>467.818726</ele>
        <time>2011-06-02T12:39:30Z</time>
      </trkpt>
      <trkpt lat="44.30324792861939" lon="5.14806032180786">
        <ele>466.376709</ele>
        <time>2011-06-02T12:39:42Z</time>
      </trkpt>
      <trkpt lat="44.30318355560303" lon="5.14780282974243">
        <ele>472.144653</ele>
        <time>2011-06-02T12:39:57Z</time>
      </trkpt>
      <trkpt lat="44.30311918258667" lon="5.14767408370972">
        <ele>473.586670</ele>
        <time>2011-06-02T12:40:06Z</time>
      </trkpt>
      <trkpt lat="44.30309772491455" lon="5.14763116836548">
        <ele>474.067261</ele>
        <time>2011-06-02T12:40:09Z</time>
      </trkpt>
      <trkpt lat="44.30299043655396" lon="5.14741659164429">
        <ele>476.951294</ele>
        <time>2011-06-02T12:40:23Z</time>
      </trkpt>
      <trkpt lat="44.30299043655396" lon="5.14737367630005">
        <ele>477.912476</ele>
        <time>2011-06-02T12:40:26Z</time>
      </trkpt>
      <trkpt lat="44.30286169052124" lon="5.14715909957886">
        <ele>483.680420</ele>
        <time>2011-06-02T12:40:38Z</time>
      </trkpt>
      <trkpt lat="44.30277585983276" lon="5.14694452285767">
        <ele>488.487183</ele>
        <time>2011-06-02T12:40:50Z</time>
      </trkpt>
      <trkpt lat="44.30264711380005" lon="5.14670848846436">
        <ele>491.851685</ele>
        <time>2011-06-02T12:41:06Z</time>
      </trkpt>
      <trkpt lat="44.30258274078369" lon="5.14645099639893">
        <ele>490.890381</ele>
        <time>2011-06-02T12:41:21Z</time>
      </trkpt>
      <trkpt lat="44.30251836776733" lon="5.14617204666138">
        <ele>490.890381</ele>
        <time>2011-06-02T12:41:37Z</time>
      </trkpt>
      <trkpt lat="44.30247545242310" lon="5.14597892761230">
        <ele>489.448364</ele>
        <time>2011-06-02T12:41:50Z</time>
      </trkpt>
      <trkpt lat="44.30245399475098" lon="5.14574289321899">
        <ele>489.929077</ele>
        <time>2011-06-02T12:42:04Z</time>
      </trkpt>
      <trkpt lat="44.30247545242310" lon="5.14569997787476">
        <ele>489.448364</ele>
        <time>2011-06-02T12:42:07Z</time>
      </trkpt>
      <trkpt lat="44.30251836776733" lon="5.14550685882568">
        <ele>487.525635</ele>
        <time>2011-06-02T12:42:18Z</time>
      </trkpt>
      <trkpt lat="44.30253982543945" lon="5.14542102813721">
        <ele>487.525635</ele>
        <time>2011-06-02T12:42:23Z</time>
      </trkpt>
      <trkpt lat="44.30253982543945" lon="5.14531373977661">
        <ele>488.006470</ele>
        <time>2011-06-02T12:42:30Z</time>
      </trkpt>
      <trkpt lat="44.30249691009522" lon="5.14524936676025">
        <ele>488.006470</ele>
        <time>2011-06-02T12:42:35Z</time>
      </trkpt>
      <trkpt lat="44.30232524871826" lon="5.14514207839966">
        <ele>486.564453</ele>
        <time>2011-06-02T12:42:51Z</time>
      </trkpt>
      <trkpt lat="44.30206775665283" lon="5.14492750167847">
        <ele>486.083740</ele>
        <time>2011-06-02T12:43:12Z</time>
      </trkpt>
      <trkpt lat="44.30191755294800" lon="5.14479875564575">
        <ele>481.757813</ele>
        <time>2011-06-02T12:43:27Z</time>
      </trkpt>
      <trkpt lat="44.30181026458740" lon="5.14462709426880">
        <ele>479.354492</ele>
        <time>2011-06-02T12:43:43Z</time>
      </trkpt>
      <trkpt lat="44.30174589157105" lon="5.14454126358032">
        <ele>477.912476</ele>
        <time>2011-06-02T12:43:51Z</time>
      </trkpt>
      <trkpt lat="44.30161714553833" lon="5.14436960220337">
        <ele>474.547974</ele>
        <time>2011-06-02T12:44:05Z</time>
      </trkpt>
      <trkpt lat="44.30150985717773" lon="5.14424085617065">
        <ele>473.586670</ele>
        <time>2011-06-02T12:44:17Z</time>
      </trkpt>
      <trkpt lat="44.30140256881714" lon="5.14409065246582">
        <ele>472.625366</ele>
        <time>2011-06-02T12:44:30Z</time>
      </trkpt>
      <trkpt lat="44.30125236511231" lon="5.14389753341675">
        <ele>471.183350</ele>
        <time>2011-06-02T12:44:44Z</time>
      </trkpt>
      <trkpt lat="44.30110216140747" lon="5.14368295669556">
        <ele>470.221924</ele>
        <time>2011-06-02T12:45:00Z</time>
      </trkpt>
      <trkpt lat="44.30099487304688" lon="5.14355421066284">
        <ele>470.702637</ele>
        <time>2011-06-02T12:45:13Z</time>
      </trkpt>
      <trkpt lat="44.30095195770264" lon="5.14346837997437">
        <ele>470.221924</ele>
        <time>2011-06-02T12:45:25Z</time>
      </trkpt>
      <trkpt lat="44.30088758468628" lon="5.14340400695801">
        <ele>470.702637</ele>
        <time>2011-06-02T12:45:35Z</time>
      </trkpt>
      <trkpt lat="44.30088758468628" lon="5.14333963394165">
        <ele>471.183350</ele>
        <time>2011-06-02T12:45:39Z</time>
      </trkpt>
      <trkpt lat="44.30097341537476" lon="5.14329671859741">
        <ele>473.106079</ele>
        <time>2011-06-02T12:45:53Z</time>
      </trkpt>
      <trkpt lat="44.30105924606323" lon="5.14325380325317">
        <ele>474.067261</ele>
        <time>2011-06-02T12:46:07Z</time>
      </trkpt>
      <trkpt lat="44.30120944976807" lon="5.14312505722046">
        <ele>475.989868</ele>
        <time>2011-06-02T12:46:23Z</time>
      </trkpt>
      <trkpt lat="44.30135965347290" lon="5.14306068420410">
        <ele>474.547974</ele>
        <time>2011-06-02T12:46:36Z</time>
      </trkpt>
      <trkpt lat="44.30148839950562" lon="5.14295339584351">
        <ele>471.663940</ele>
        <time>2011-06-02T12:46:50Z</time>
      </trkpt>
      <trkpt lat="44.30159568786621" lon="5.14282464981079">
        <ele>471.183350</ele>
        <time>2011-06-02T12:47:03Z</time>
      </trkpt>
      <trkpt lat="44.30166006088257" lon="5.14276027679443">
        <ele>470.221924</ele>
        <time>2011-06-02T12:47:09Z</time>
      </trkpt>
      <trkpt lat="44.30178880691528" lon="5.14261007308960">
        <ele>469.741333</ele>
        <time>2011-06-02T12:47:24Z</time>
      </trkpt>
      <trkpt lat="44.30185317993164" lon="5.14254570007324">
        <ele>469.260742</ele>
        <time>2011-06-02T12:47:37Z</time>
      </trkpt>
      <trkpt lat="44.30187463760376" lon="5.14250278472900">
        <ele>468.299316</ele>
        <time>2011-06-02T12:48:37Z</time>
      </trkpt>
      <trkpt lat="44.30193901062012" lon="5.14239549636841">
        <ele>465.896118</ele>
        <time>2011-06-02T12:48:47Z</time>
      </trkpt>
      <trkpt lat="44.30200338363648" lon="5.14230966567993">
        <ele>463.973389</ele>
        <time>2011-06-02T12:48:57Z</time>
      </trkpt>
      <trkpt lat="44.30204629898071" lon="5.14220237731934">
        <ele>460.608765</ele>
        <time>2011-06-02T12:49:13Z</time>
      </trkpt>
      <trkpt lat="44.30206775665283" lon="5.14220237731934">
        <ele>460.128174</ele>
        <time>2011-06-02T12:49:18Z</time>
      </trkpt>
      <trkpt lat="44.30217504501343" lon="5.14215946197510">
        <ele>459.166870</ele>
        <time>2011-06-02T12:49:29Z</time>
      </trkpt>
      <trkpt lat="44.30223941802979" lon="5.14207363128662">
        <ele>460.608765</ele>
        <time>2011-06-02T12:49:36Z</time>
      </trkpt>
      <trkpt lat="44.30234670639038" lon="5.14196634292603">
        <ele>462.531372</ele>
        <time>2011-06-02T12:49:47Z</time>
      </trkpt>
      <trkpt lat="44.30236816406250" lon="5.14196634292603">
        <ele>463.012085</ele>
        <time>2011-06-02T12:49:48Z</time>
      </trkpt>
      <trkpt lat="44.30238962173462" lon="5.14196634292603">
        <ele>463.973389</ele>
        <time>2011-06-02T12:49:50Z</time>
      </trkpt>
      <trkpt lat="44.30247545242310" lon="5.14209508895874">
        <ele>464.454102</ele>
        <time>2011-06-02T12:50:03Z</time>
      </trkpt>
      <trkpt lat="44.30247545242310" lon="5.14207363128662">
        <ele>464.454102</ele>
        <time>2011-06-02T12:50:11Z</time>
      </trkpt>
      <trkpt lat="44.30247545242310" lon="5.14203071594238">
        <ele>464.454102</ele>
        <time>2011-06-02T12:50:13Z</time>
      </trkpt>
      <trkpt lat="44.30247545242310" lon="5.14198780059814">
        <ele>463.973389</ele>
        <time>2011-06-02T12:50:16Z</time>
      </trkpt>
      <trkpt lat="44.30249691009522" lon="5.14192342758179">
        <ele>464.454102</ele>
        <time>2011-06-02T12:50:21Z</time>
      </trkpt>
      <trkpt lat="44.30249691009522" lon="5.14190196990967">
        <ele>463.973389</ele>
        <time>2011-06-02T12:50:33Z</time>
      </trkpt>
      <trkpt lat="44.30251836776733" lon="5.14188051223755">
        <ele>463.973389</ele>
        <time>2011-06-02T12:50:36Z</time>
      </trkpt>
      <trkpt lat="44.30253982543945" lon="5.14181613922119">
        <ele>465.415527</ele>
        <time>2011-06-02T12:50:43Z</time>
      </trkpt>
      <trkpt lat="44.30256128311157" lon="5.14175176620483">
        <ele>466.857422</ele>
        <time>2011-06-02T12:50:49Z</time>
      </trkpt>
      <trkpt lat="44.30262565612793" lon="5.14166593551636">
        <ele>467.818726</ele>
        <time>2011-06-02T12:50:58Z</time>
      </trkpt>
      <trkpt lat="44.30264711380005" lon="5.14158010482788">
        <ele>469.741333</ele>
        <time>2011-06-02T12:51:09Z</time>
      </trkpt>
      <trkpt lat="44.30271148681641" lon="5.14153718948364">
        <ele>470.702637</ele>
        <time>2011-06-02T12:51:25Z</time>
      </trkpt>
      <trkpt lat="44.30279731750488" lon="5.14142990112305">
        <ele>471.663940</ele>
        <time>2011-06-02T12:51:41Z</time>
      </trkpt>
      <trkpt lat="44.30288314819336" lon="5.14136552810669">
        <ele>472.144653</ele>
        <time>2011-06-02T12:51:52Z</time>
      </trkpt>
      <trkpt lat="44.30292606353760" lon="5.14127969741821">
        <ele>472.144653</ele>
        <time>2011-06-02T12:52:02Z</time>
      </trkpt>
      <trkpt lat="44.30299043655396" lon="5.14123678207397">
        <ele>473.586670</ele>
        <time>2011-06-02T12:52:14Z</time>
      </trkpt>
      <trkpt lat="44.30303335189819" lon="5.14117240905762">
        <ele>473.586670</ele>
        <time>2011-06-02T12:52:23Z</time>
      </trkpt>
      <trkpt lat="44.30314064025879" lon="5.14106512069702">
        <ele>474.547974</ele>
        <time>2011-06-02T12:52:35Z</time>
      </trkpt>
      <trkpt lat="44.30320501327515" lon="5.14100074768066">
        <ele>474.067261</ele>
        <time>2011-06-02T12:52:47Z</time>
      </trkpt>
      <trkpt lat="44.30331230163574" lon="5.14089345932007">
        <ele>472.625366</ele>
        <time>2011-06-02T12:52:59Z</time>
      </trkpt>
      <trkpt lat="44.30339813232422" lon="5.14080762863159">
        <ele>471.183350</ele>
        <time>2011-06-02T12:53:10Z</time>
      </trkpt>
      <trkpt lat="44.30341958999634" lon="5.14078617095947">
        <ele>470.221924</ele>
        <time>2011-06-02T12:53:24Z</time>
      </trkpt>
      <trkpt lat="44.30350542068481" lon="5.14072179794312">
        <ele>468.780029</ele>
        <time>2011-06-02T12:53:33Z</time>
      </trkpt>
      <trkpt lat="44.30354833602905" lon="5.14065742492676">
        <ele>467.818726</ele>
        <time>2011-06-02T12:53:46Z</time>
      </trkpt>
      <trkpt lat="44.30359125137329" lon="5.14059305191040">
        <ele>468.299316</ele>
        <time>2011-06-02T12:54:01Z</time>
      </trkpt>
      <trkpt lat="44.30363416671753" lon="5.14055013656616">
        <ele>468.299316</ele>
        <time>2011-06-02T12:54:19Z</time>
      </trkpt>
      <trkpt lat="44.30371999740601" lon="5.14048576354980">
        <ele>468.299316</ele>
        <time>2011-06-02T12:54:30Z</time>
      </trkpt>
      <trkpt lat="44.30382728576660" lon="5.14042139053345">
        <ele>466.857422</ele>
        <time>2011-06-02T12:54:43Z</time>
      </trkpt>
      <trkpt lat="44.30389165878296" lon="5.14033555984497">
        <ele>464.934814</ele>
        <time>2011-06-02T12:54:53Z</time>
      </trkpt>
      <trkpt lat="44.30397748947144" lon="5.14027118682861">
        <ele>463.973389</ele>
        <time>2011-06-02T12:55:05Z</time>
      </trkpt>
      <trkpt lat="44.30406332015991" lon="5.14020681381226">
        <ele>464.454102</ele>
        <time>2011-06-02T12:55:14Z</time>
      </trkpt>
      <trkpt lat="44.30412769317627" lon="5.14012098312378">
        <ele>463.973389</ele>
        <time>2011-06-02T12:55:23Z</time>
      </trkpt>
      <trkpt lat="44.30414915084839" lon="5.14009952545166">
        <ele>463.492798</ele>
        <time>2011-06-02T12:55:25Z</time>
      </trkpt>
      <trkpt lat="44.30423498153687" lon="5.14005661010742">
        <ele>463.492798</ele>
        <time>2011-06-02T12:55:34Z</time>
      </trkpt>
      <trkpt lat="44.30427789688110" lon="5.14003515243530">
        <ele>463.492798</ele>
        <time>2011-06-02T12:55:45Z</time>
      </trkpt>
      <trkpt lat="44.30432081222534" lon="5.14001369476318">
        <ele>463.973389</ele>
        <time>2011-06-02T12:56:12Z</time>
      </trkpt>
      <trkpt lat="44.30444955825806" lon="5.13994932174683">
        <ele>463.973389</ele>
        <time>2011-06-02T12:56:27Z</time>
      </trkpt>
      <trkpt lat="44.30453538894653" lon="5.13990640640259">
        <ele>462.050781</ele>
        <time>2011-06-02T12:56:38Z</time>
      </trkpt>
      <trkpt lat="44.30455684661865" lon="5.13988494873047">
        <ele>461.570190</ele>
        <time>2011-06-02T12:56:40Z</time>
      </trkpt>
      <trkpt lat="44.30468559265137" lon="5.13979911804199">
        <ele>456.763550</ele>
        <time>2011-06-02T12:56:57Z</time>
      </trkpt>
      <trkpt lat="44.30474996566773" lon="5.13977766036987">
        <ele>454.840820</ele>
        <time>2011-06-02T12:57:12Z</time>
      </trkpt>
      <trkpt lat="44.30483579635620" lon="5.13973474502563">
        <ele>453.879639</ele>
        <time>2011-06-02T12:57:25Z</time>
      </trkpt>
      <trkpt lat="44.30490016937256" lon="5.13969182968140">
        <ele>452.918213</ele>
        <time>2011-06-02T12:57:33Z</time>
      </trkpt>
      <trkpt lat="44.30500745773315" lon="5.13962745666504">
        <ele>451.476318</ele>
        <time>2011-06-02T12:57:40Z</time>
      </trkpt>
      <trkpt lat="44.30505037307739" lon="5.13958454132080">
        <ele>449.072998</ele>
        <time>2011-06-02T12:57:47Z</time>
      </trkpt>
      <trkpt lat="44.30513620376587" lon="5.13952016830444">
        <ele>447.150269</ele>
        <time>2011-06-02T12:57:57Z</time>
      </trkpt>
      <trkpt lat="44.30520057678223" lon="5.13952016830444">
        <ele>447.630981</ele>
        <time>2011-06-02T12:58:13Z</time>
      </trkpt>
      <trkpt lat="44.30528640747070" lon="5.13949871063232">
        <ele>447.630981</ele>
        <time>2011-06-02T12:58:32Z</time>
      </trkpt>
      <trkpt lat="44.30537223815918" lon="5.13945579528809">
        <ele>446.189087</ele>
        <time>2011-06-02T12:58:59Z</time>
      </trkpt>
      <trkpt lat="44.30543661117554" lon="5.13945579528809">
        <ele>445.708374</ele>
        <time>2011-06-02T12:59:08Z</time>
      </trkpt>
      <trkpt lat="44.30547952651978" lon="5.13945579528809">
        <ele>443.785767</ele>
        <time>2011-06-02T12:59:32Z</time>
      </trkpt>
      <trkpt lat="44.30556535720825" lon="5.13943433761597">
        <ele>439.940430</ele>
        <time>2011-06-02T12:59:48Z</time>
      </trkpt>
      <trkpt lat="44.30558681488037" lon="5.13943433761597">
        <ele>437.537109</ele>
        <time>2011-06-02T13:00:11Z</time>
      </trkpt>
      <trkpt lat="44.30567264556885" lon="5.13939142227173">
        <ele>436.095215</ele>
        <time>2011-06-02T13:00:50Z</time>
      </trkpt>
      <trkpt lat="44.30586576461792" lon="5.13939142227173">
        <ele>429.365967</ele>
        <time>2011-06-02T13:02:36Z</time>
      </trkpt>
      <trkpt lat="44.30590867996216" lon="5.13941287994385">
        <ele>426.001343</ele>
        <time>2011-06-02T13:02:47Z</time>
      </trkpt>
      <trkpt lat="44.30597305297852" lon="5.13932704925537">
        <ele>416.388184</ele>
        <time>2011-06-02T13:03:09Z</time>
      </trkpt>
      <trkpt lat="44.30608034133911" lon="5.13928413391113">
        <ele>409.659058</ele>
        <time>2011-06-02T13:03:46Z</time>
      </trkpt>
      <trkpt lat="44.30614471435547" lon="5.13921976089478">
        <ele>406.774902</ele>
        <time>2011-06-02T13:04:32Z</time>
      </trkpt>
      <trkpt lat="44.30623054504395" lon="5.13919830322266">
        <ele>404.852295</ele>
        <time>2011-06-02T13:04:42Z</time>
      </trkpt>
      <trkpt lat="44.30633783340454" lon="5.13911247253418">
        <ele>400.045898</ele>
        <time>2011-06-02T13:04:59Z</time>
      </trkpt>
      <trkpt lat="44.30640220642090" lon="5.13889789581299">
        <ele>392.355347</ele>
        <time>2011-06-02T13:05:20Z</time>
      </trkpt>
      <trkpt lat="44.30638074874878" lon="5.13876914978027">
        <ele>390.913208</ele>
        <time>2011-06-02T13:05:27Z</time>
      </trkpt>
      <trkpt lat="44.30635929107666" lon="5.13872623443604">
        <ele>390.432617</ele>
        <time>2011-06-02T13:05:29Z</time>
      </trkpt>
      <trkpt lat="44.30638074874878" lon="5.13855457305908">
        <ele>394.758545</ele>
        <time>2011-06-02T13:05:37Z</time>
      </trkpt>
      <trkpt lat="44.30642366409302" lon="5.13844728469849">
        <ele>399.084351</ele>
        <time>2011-06-02T13:05:43Z</time>
      </trkpt>
      <trkpt lat="44.30642366409302" lon="5.13842582702637">
        <ele>399.565063</ele>
        <time>2011-06-02T13:05:44Z</time>
      </trkpt>
      <trkpt lat="44.30642366409302" lon="5.13831853866577">
        <ele>398.123169</ele>
        <time>2011-06-02T13:05:50Z</time>
      </trkpt>
      <trkpt lat="44.30640220642090" lon="5.13818979263306">
        <ele>396.200562</ele>
        <time>2011-06-02T13:05:57Z</time>
      </trkpt>
      <trkpt lat="44.30638074874878" lon="5.13806104660034">
        <ele>391.874512</ele>
        <time>2011-06-02T13:06:06Z</time>
      </trkpt>
      <trkpt lat="44.30638074874878" lon="5.13801813125610">
        <ele>391.874512</ele>
        <time>2011-06-02T13:06:10Z</time>
      </trkpt>
      <trkpt lat="44.30635929107666" lon="5.13797521591187">
        <ele>391.393799</ele>
        <time>2011-06-02T13:06:14Z</time>
      </trkpt>
      <trkpt lat="44.30633783340454" lon="5.13793230056763">
        <ele>390.913208</ele>
        <time>2011-06-02T13:06:18Z</time>
      </trkpt>
      <trkpt lat="44.30620908737183" lon="5.13776063919067">
        <ele>388.990601</ele>
        <time>2011-06-02T13:06:32Z</time>
      </trkpt>
      <trkpt lat="44.30605888366699" lon="5.13758897781372">
        <ele>386.106689</ele>
        <time>2011-06-02T13:06:46Z</time>
      </trkpt>
      <trkpt lat="44.30599451065064" lon="5.13750314712524">
        <ele>387.067993</ele>
        <time>2011-06-02T13:06:55Z</time>
      </trkpt>
      <trkpt lat="44.30586576461792" lon="5.13737440109253">
        <ele>388.510010</ele>
        <time>2011-06-02T13:07:07Z</time>
      </trkpt>
      <trkpt lat="44.30580139160156" lon="5.13731002807617">
        <ele>388.510010</ele>
        <time>2011-06-02T13:07:12Z</time>
      </trkpt>
      <trkpt lat="44.30565118789673" lon="5.13718128204346">
        <ele>380.338745</ele>
        <time>2011-06-02T13:07:27Z</time>
      </trkpt>
      <trkpt lat="44.30550098419190" lon="5.13696670532227">
        <ele>378.416138</ele>
        <time>2011-06-02T13:07:43Z</time>
      </trkpt>
      <trkpt lat="44.30539369583130" lon="5.13679504394531">
        <ele>377.454834</ele>
        <time>2011-06-02T13:07:56Z</time>
      </trkpt>
      <trkpt lat="44.30530786514282" lon="5.13651609420776">
        <ele>378.416138</ele>
        <time>2011-06-02T13:08:11Z</time>
      </trkpt>
      <trkpt lat="44.30517911911011" lon="5.13630151748657">
        <ele>382.742065</ele>
        <time>2011-06-02T13:08:26Z</time>
      </trkpt>
      <trkpt lat="44.30507183074951" lon="5.13606548309326">
        <ele>383.703247</ele>
        <time>2011-06-02T13:08:39Z</time>
      </trkpt>
      <trkpt lat="44.30507183074951" lon="5.13604402542114">
        <ele>383.703247</ele>
        <time>2011-06-02T13:08:40Z</time>
      </trkpt>
      <trkpt lat="44.30511474609375" lon="5.13576507568359">
        <ele>384.184082</ele>
        <time>2011-06-02T13:08:54Z</time>
      </trkpt>
      <trkpt lat="44.30513620376587" lon="5.13561487197876">
        <ele>383.222656</ele>
        <time>2011-06-02T13:09:03Z</time>
      </trkpt>
      <trkpt lat="44.30507183074951" lon="5.13533592224121">
        <ele>382.742065</ele>
        <time>2011-06-02T13:09:20Z</time>
      </trkpt>
      <trkpt lat="44.30492162704468" lon="5.13503551483154">
        <ele>378.896851</ele>
        <time>2011-06-02T13:09:39Z</time>
      </trkpt>
      <trkpt lat="44.30479288101196" lon="5.13484239578247">
        <ele>378.416138</ele>
        <time>2011-06-02T13:09:55Z</time>
      </trkpt>
      <trkpt lat="44.30470705032349" lon="5.13471364974976">
        <ele>378.896851</ele>
        <time>2011-06-02T13:10:05Z</time>
      </trkpt>
      <trkpt lat="44.30453538894653" lon="5.13449907302856">
        <ele>379.858032</ele>
        <time>2011-06-02T13:10:21Z</time>
      </trkpt>
      <trkpt lat="44.30440664291382" lon="5.13434886932373">
        <ele>379.377441</ele>
        <time>2011-06-02T13:10:33Z</time>
      </trkpt>
      <trkpt lat="44.30440664291382" lon="5.13434886932373">
        <ele>379.858032</ele>
        <time>2011-06-02T13:10:34Z</time>
      </trkpt>
      <trkpt lat="44.30425643920898" lon="5.13413429260254">
        <ele>379.858032</ele>
        <time>2011-06-02T13:10:48Z</time>
      </trkpt>
      <trkpt lat="44.30423498153687" lon="5.13413429260254">
        <ele>379.858032</ele>
        <time>2011-06-02T13:10:49Z</time>
      </trkpt>
      <trkpt lat="44.30423498153687" lon="5.13411283493042">
        <ele>379.858032</ele>
        <time>2011-06-02T13:10:51Z</time>
      </trkpt>
      <trkpt lat="44.30419206619263" lon="5.13406991958618">
        <ele>379.377441</ele>
        <time>2011-06-02T13:10:55Z</time>
      </trkpt>
      <trkpt lat="44.30412769317627" lon="5.13398408889771">
        <ele>379.377441</ele>
        <time>2011-06-02T13:11:02Z</time>
      </trkpt>
      <trkpt lat="44.30404186248779" lon="5.13385534286499">
        <ele>381.300049</ele>
        <time>2011-06-02T13:11:12Z</time>
      </trkpt>
      <trkpt lat="44.30387020111084" lon="5.13364076614380">
        <ele>380.338745</ele>
        <time>2011-06-02T13:11:27Z</time>
      </trkpt>
      <trkpt lat="44.30374145507813" lon="5.13346910476685">
        <ele>381.300049</ele>
        <time>2011-06-02T13:11:42Z</time>
      </trkpt>
      <trkpt lat="44.30356979370117" lon="5.13327598571777">
        <ele>381.780640</ele>
        <time>2011-06-02T13:11:56Z</time>
      </trkpt>
      <trkpt lat="44.30344104766846" lon="5.13306140899658">
        <ele>380.819458</ele>
        <time>2011-06-02T13:12:12Z</time>
      </trkpt>
      <trkpt lat="44.30329084396362" lon="5.13291120529175">
        <ele>379.858032</ele>
        <time>2011-06-02T13:12:27Z</time>
      </trkpt>
      <trkpt lat="44.30318355560303" lon="5.13273954391479">
        <ele>379.858032</ele>
        <time>2011-06-02T13:12:42Z</time>
      </trkpt>
      <trkpt lat="44.30314064025879" lon="5.13271808624268">
        <ele>379.858032</ele>
        <time>2011-06-02T13:12:54Z</time>
      </trkpt>
      <trkpt lat="44.30305480957031" lon="5.13258934020996">
        <ele>379.858032</ele>
        <time>2011-06-02T13:13:07Z</time>
      </trkpt>
      <trkpt lat="44.30301189422607" lon="5.13252496719360">
        <ele>380.338745</ele>
        <time>2011-06-02T13:13:35Z</time>
      </trkpt>
      <trkpt lat="44.30292606353760" lon="5.13243913650513">
        <ele>381.300049</ele>
        <time>2011-06-02T13:13:49Z</time>
      </trkpt>
      <trkpt lat="44.30286169052124" lon="5.13235330581665">
        <ele>381.300049</ele>
        <time>2011-06-02T13:14:03Z</time>
      </trkpt>
      <trkpt lat="44.30281877517700" lon="5.13228893280029">
        <ele>381.300049</ele>
        <time>2011-06-02T13:14:21Z</time>
      </trkpt>
      <trkpt lat="44.30275440216065" lon="5.13220310211182">
        <ele>380.819458</ele>
        <time>2011-06-02T13:14:30Z</time>
      </trkpt>
      <trkpt lat="44.30269002914429" lon="5.13213872909546">
        <ele>380.338745</ele>
        <time>2011-06-02T13:14:37Z</time>
      </trkpt>
      <trkpt lat="44.30264711380005" lon="5.13207435607910">
        <ele>380.338745</ele>
        <time>2011-06-02T13:14:46Z</time>
      </trkpt>
      <trkpt lat="44.30262565612793" lon="5.13198852539063">
        <ele>379.377441</ele>
        <time>2011-06-02T13:14:54Z</time>
      </trkpt>
      <trkpt lat="44.30253982543945" lon="5.13190269470215">
        <ele>377.935425</ele>
        <time>2011-06-02T13:15:10Z</time>
      </trkpt>
      <trkpt lat="44.30247545242310" lon="5.13183832168579">
        <ele>377.935425</ele>
        <time>2011-06-02T13:15:20Z</time>
      </trkpt>
      <trkpt lat="44.30247545242310" lon="5.13181686401367">
        <ele>377.935425</ele>
        <time>2011-06-02T13:15:32Z</time>
      </trkpt>
      <trkpt lat="44.30243253707886" lon="5.13177394866943">
        <ele>378.416138</ele>
        <time>2011-06-02T13:15:41Z</time>
      </trkpt>
      <trkpt lat="44.30234670639038" lon="5.13162374496460">
        <ele>378.416138</ele>
        <time>2011-06-02T13:15:55Z</time>
      </trkpt>
      <trkpt lat="44.30232524871826" lon="5.13153791427612">
        <ele>378.416138</ele>
        <time>2011-06-02T13:16:01Z</time>
      </trkpt>
      <trkpt lat="44.30230379104614" lon="5.13151645660400">
        <ele>377.935425</ele>
        <time>2011-06-02T13:16:04Z</time>
      </trkpt>
      <trkpt lat="44.30223941802979" lon="5.13138771057129">
        <ele>378.416138</ele>
        <time>2011-06-02T13:16:12Z</time>
      </trkpt>
      <trkpt lat="44.30221796035767" lon="5.13130187988281">
        <ele>378.896851</ele>
        <time>2011-06-02T13:16:19Z</time>
      </trkpt>
      <trkpt lat="44.30219650268555" lon="5.13125896453857">
        <ele>380.338745</ele>
        <time>2011-06-02T13:16:31Z</time>
      </trkpt>
      <trkpt lat="44.30215358734131" lon="5.13113021850586">
        <ele>381.780640</ele>
        <time>2011-06-02T13:16:53Z</time>
      </trkpt>
      <trkpt lat="44.30211067199707" lon="5.13104438781738">
        <ele>382.742065</ele>
        <time>2011-06-02T13:16:59Z</time>
      </trkpt>
      <trkpt lat="44.30208921432495" lon="5.13102293014526">
        <ele>383.222656</ele>
        <time>2011-06-02T13:17:01Z</time>
      </trkpt>
      <trkpt lat="44.30204629898071" lon="5.13093709945679">
        <ele>384.184082</ele>
        <time>2011-06-02T13:17:08Z</time>
      </trkpt>
      <trkpt lat="44.30198192596436" lon="5.13074398040771">
        <ele>387.067993</ele>
        <time>2011-06-02T13:17:24Z</time>
      </trkpt>
      <trkpt lat="44.30187463760376" lon="5.13055086135864">
        <ele>386.587402</ele>
        <time>2011-06-02T13:17:40Z</time>
      </trkpt>
      <trkpt lat="44.30172443389893" lon="5.13033628463745">
        <ele>385.145386</ele>
        <time>2011-06-02T13:18:00Z</time>
      </trkpt>
      <trkpt lat="44.30163860321045" lon="5.13022899627686">
        <ele>383.703247</ele>
        <time>2011-06-02T13:18:13Z</time>
      </trkpt>
      <trkpt lat="44.30157423019409" lon="5.13014316558838">
        <ele>382.742065</ele>
        <time>2011-06-02T13:18:25Z</time>
      </trkpt>
      <trkpt lat="44.30155277252197" lon="5.13014316558838">
        <ele>382.742065</ele>
        <time>2011-06-02T13:18:26Z</time>
      </trkpt>
      <trkpt lat="44.30146694183350" lon="5.13001441955566">
        <ele>382.261353</ele>
        <time>2011-06-02T13:18:36Z</time>
      </trkpt>
      <trkpt lat="44.30138111114502" lon="5.12992858886719">
        <ele>381.780640</ele>
        <time>2011-06-02T13:18:45Z</time>
      </trkpt>
      <trkpt lat="44.30129528045654" lon="5.12969255447388">
        <ele>382.261353</ele>
        <time>2011-06-02T13:19:00Z</time>
      </trkpt>
      <trkpt lat="44.30129528045654" lon="5.12967109680176">
        <ele>382.261353</ele>
        <time>2011-06-02T13:19:01Z</time>
      </trkpt>
      <trkpt lat="44.30129528045654" lon="5.12941360473633">
        <ele>381.300049</ele>
        <time>2011-06-02T13:19:17Z</time>
      </trkpt>
      <trkpt lat="44.30131673812866" lon="5.12913465499878">
        <ele>378.896851</ele>
        <time>2011-06-02T13:19:34Z</time>
      </trkpt>
      <trkpt lat="44.30135965347290" lon="5.12887716293335">
        <ele>376.974243</ele>
        <time>2011-06-02T13:19:50Z</time>
      </trkpt>
      <trkpt lat="44.30135965347290" lon="5.12870550155640">
        <ele>375.051514</ele>
        <time>2011-06-02T13:20:00Z</time>
      </trkpt>
      <trkpt lat="44.30135965347290" lon="5.12866258621216">
        <ele>374.570801</ele>
        <time>2011-06-02T13:20:02Z</time>
      </trkpt>
      <trkpt lat="44.30135965347290" lon="5.12846946716309">
        <ele>374.090088</ele>
        <time>2011-06-02T13:20:13Z</time>
      </trkpt>
      <trkpt lat="44.30133819580078" lon="5.12840509414673">
        <ele>373.609497</ele>
        <time>2011-06-02T13:20:18Z</time>
      </trkpt>
      <trkpt lat="44.30131673812866" lon="5.12829780578613">
        <ele>369.764282</ele>
        <time>2011-06-02T13:20:29Z</time>
      </trkpt>
      <trkpt lat="44.30133819580078" lon="5.12829780578613">
        <ele>369.283691</ele>
        <time>2011-06-02T13:20:30Z</time>
      </trkpt>
      <trkpt lat="44.30135965347290" lon="5.12827634811401">
        <ele>367.360962</ele>
        <time>2011-06-02T13:20:34Z</time>
      </trkpt>
      <trkpt lat="44.30140256881714" lon="5.12821197509766">
        <ele>362.554321</ele>
        <time>2011-06-02T13:20:45Z</time>
      </trkpt>
      <trkpt lat="44.30138111114502" lon="5.12819051742554">
        <ele>359.189697</ele>
        <time>2011-06-02T13:20:57Z</time>
      </trkpt>
      <trkpt lat="44.30133819580078" lon="5.12819051742554">
        <ele>357.747803</ele>
        <time>2011-06-02T13:21:08Z</time>
      </trkpt>
      <trkpt lat="44.30129528045654" lon="5.12819051742554">
        <ele>356.786377</ele>
        <time>2011-06-02T13:21:11Z</time>
      </trkpt>
      <trkpt lat="44.30125236511231" lon="5.12821197509766">
        <ele>355.344482</ele>
        <time>2011-06-02T13:21:21Z</time>
      </trkpt>
      <trkpt lat="44.30114507675171" lon="5.12825489044189">
        <ele>352.941162</ele>
        <time>2011-06-02T13:21:32Z</time>
      </trkpt>
      <trkpt lat="44.30108070373535" lon="5.12827634811401">
        <ele>351.018433</ele>
        <time>2011-06-02T13:21:39Z</time>
      </trkpt>
      <trkpt lat="44.30105924606323" lon="5.12829780578613">
        <ele>350.537842</ele>
        <time>2011-06-02T13:21:43Z</time>
      </trkpt>
      <trkpt lat="44.30088758468628" lon="5.12834072113037">
        <ele>347.653931</ele>
        <time>2011-06-02T13:21:58Z</time>
      </trkpt>
      <trkpt lat="44.30080175399780" lon="5.12836217880249">
        <ele>346.212036</ele>
        <time>2011-06-02T13:22:07Z</time>
      </trkpt>
      <trkpt lat="44.30067300796509" lon="5.12842655181885">
        <ele>343.327881</ele>
        <time>2011-06-02T13:22:20Z</time>
      </trkpt>
      <trkpt lat="44.30063009262085" lon="5.12842655181885">
        <ele>342.847290</ele>
        <time>2011-06-02T13:22:23Z</time>
      </trkpt>
      <trkpt lat="44.30058717727661" lon="5.12836217880249">
        <ele>343.808594</ele>
        <time>2011-06-02T13:22:29Z</time>
      </trkpt>
      <trkpt lat="44.30067300796509" lon="5.12825489044189">
        <ele>342.847290</ele>
        <time>2011-06-02T13:22:41Z</time>
      </trkpt>
      <trkpt lat="44.30069446563721" lon="5.12821197509766">
        <ele>341.405273</ele>
        <time>2011-06-02T13:22:46Z</time>
      </trkpt>
      <trkpt lat="44.30075883865356" lon="5.12810468673706">
        <ele>338.040771</ele>
        <time>2011-06-02T13:22:57Z</time>
      </trkpt>
      <trkpt lat="44.30075883865356" lon="5.12808322906494">
        <ele>337.560059</ele>
        <time>2011-06-02T13:22:58Z</time>
      </trkpt>
      <trkpt lat="44.30082321166992" lon="5.12799739837646">
        <ele>335.156738</ele>
        <time>2011-06-02T13:23:07Z</time>
      </trkpt>
      <trkpt lat="44.30082321166992" lon="5.12797594070435">
        <ele>335.156738</ele>
        <time>2011-06-02T13:23:08Z</time>
      </trkpt>
      <trkpt lat="44.30084466934204" lon="5.12795448303223">
        <ele>334.676147</ele>
        <time>2011-06-02T13:23:10Z</time>
      </trkpt>
      <trkpt lat="44.30093050003052" lon="5.12765407562256">
        <ele>332.753540</ele>
        <time>2011-06-02T13:23:28Z</time>
      </trkpt>
      <trkpt lat="44.30095195770264" lon="5.12758970260620">
        <ele>335.156738</ele>
        <time>2011-06-02T13:23:32Z</time>
      </trkpt>
      <trkpt lat="44.30097341537476" lon="5.12754678726196">
        <ele>336.118164</ele>
        <time>2011-06-02T13:23:36Z</time>
      </trkpt>
      <trkpt lat="44.30101633071899" lon="5.12739658355713">
        <ele>336.118164</ele>
        <time>2011-06-02T13:23:43Z</time>
      </trkpt>
      <trkpt lat="44.30103778839111" lon="5.12733221054077">
        <ele>338.040771</ele>
        <time>2011-06-02T13:23:49Z</time>
      </trkpt>
      <trkpt lat="44.30105924606323" lon="5.12722492218018">
        <ele>337.079468</ele>
        <time>2011-06-02T13:23:55Z</time>
      </trkpt>
      <trkpt lat="44.30110216140747" lon="5.12713909149170">
        <ele>338.040771</ele>
        <time>2011-06-02T13:24:07Z</time>
      </trkpt>
      <trkpt lat="44.30110216140747" lon="5.12707471847534">
        <ele>339.482666</ele>
        <time>2011-06-02T13:24:25Z</time>
      </trkpt>
      <trkpt lat="44.30108070373535" lon="5.12707471847534">
        <ele>339.482666</ele>
        <time>2011-06-02T13:24:53Z</time>
      </trkpt>
      <trkpt lat="44.30112361907959" lon="5.12701034545898">
        <ele>341.405273</ele>
        <time>2011-06-02T13:25:07Z</time>
      </trkpt>
      <trkpt lat="44.30112361907959" lon="5.12696743011475">
        <ele>340.924683</ele>
        <time>2011-06-02T13:25:21Z</time>
      </trkpt>
      <trkpt lat="44.30120944976807" lon="5.12683868408203">
        <ele>339.002075</ele>
        <time>2011-06-02T13:25:36Z</time>
      </trkpt>
      <trkpt lat="44.30129528045654" lon="5.12675285339355">
        <ele>337.560059</ele>
        <time>2011-06-02T13:25:46Z</time>
      </trkpt>
      <trkpt lat="44.30129528045654" lon="5.12673139572144">
        <ele>337.560059</ele>
        <time>2011-06-02T13:25:47Z</time>
      </trkpt>
      <trkpt lat="44.30131673812866" lon="5.12668848037720">
        <ele>337.079468</ele>
        <time>2011-06-02T13:25:50Z</time>
      </trkpt>
      <trkpt lat="44.30133819580078" lon="5.12658119201660">
        <ele>336.118164</ele>
        <time>2011-06-02T13:25:59Z</time>
      </trkpt>
      <trkpt lat="44.30129528045654" lon="5.12623786926270">
        <ele>336.598877</ele>
        <time>2011-06-02T13:27:18Z</time>
      </trkpt>
      <trkpt lat="44.30127382278442" lon="5.12610912322998">
        <ele>337.560059</ele>
        <time>2011-06-02T13:27:27Z</time>
      </trkpt>
      <trkpt lat="44.30129528045654" lon="5.12617349624634">
        <ele>335.637329</ele>
        <time>2011-06-02T13:27:44Z</time>
      </trkpt>
      <trkpt lat="44.30129528045654" lon="5.12619495391846">
        <ele>335.637329</ele>
        <time>2011-06-02T13:27:45Z</time>
      </trkpt>
      <trkpt lat="44.30125236511231" lon="5.12623786926270">
        <ele>336.118164</ele>
        <time>2011-06-02T13:27:56Z</time>
      </trkpt>
      <trkpt lat="44.30125236511231" lon="5.12610912322998">
        <ele>336.118164</ele>
        <time>2011-06-02T13:28:52Z</time>
      </trkpt>
      <trkpt lat="44.30125236511231" lon="5.12610912322998">
        <ele>336.118164</ele>
        <time>2011-06-02T13:28:58Z</time>
      </trkpt>
    </trkseg>
  </trk>
</gpx>
